Wetterdaten: Donnerstag, 19.06.2014
Datum Zeit Temp. Aussen +5cm Feuchte Auss Luftdruck Regen Sonnenschein Regendauer UV Solar Windben
19.06.2014 00:00 14,6 C 13,3 C 83 % 1021,2 hPa 0,0 l/m 0 min 0 min 0,0 UV-I 0 W/m 2,1 km/h (1 Bft)
19.06.2014 00:02 14,5 C 13,3 C 83 % 1021,2 hPa 0,0 l/m 0 min 0 min 0,0 UV-I 0 W/m 0,0 km/h (0 Bft)
19.06.2014 00:06 14,4 C 12,8 C 83 % 1021,2 hPa 0,0 l/m 0 min 0 min 0,0 UV-I 0 W/m 2,1 km/h (1 Bft)
19.06.2014 00:08 14,3 C 12,8 C 83 % 1021,2 hPa 0,0 l/m 0 min 0 min 0,0 UV-I 0 W/m 0,0 km/h (0 Bft)
19.06.2014 00:10 14,2 C 12,8 C 84 % 1021,2 hPa 0,0 l/m 0 min 0 min 0,0 UV-I 0 W/m 6,3 km/h (2 Bft)
19.06.2014 00:12 14,2 C 12,8 C 84 % 1021,3 hPa 0,0 l/m 0 min 0 min 0,0 UV-I 0 W/m 2,1 km/h (1 Bft)
19.06.2014 00:14 14,2 C 12,8 C 84 % 1021,3 hPa 0,0 l/m 0 min 0 min 0,0 UV-I 0 W/m 6,3 km/h (2 Bft)
19.06.2014 00:16 14,2 C 12,8 C 84 % 1021,3 hPa 0,0 l/m 0 min 0 min 0,0 UV-I 0 W/m 4,2 km/h (1 Bft)
19.06.2014 00:18 14,2 C 12,8 C 84 % 1021,2 hPa 0,0 l/m 0 min 0 min 0,0 UV-I 0 W/m 6,3 km/h (2 Bft)
19.06.2014 00:20 14,2 C 12,8 C 84 % 1021,2 hPa 0,0 l/m 0 min 0 min 0,0 UV-I 0 W/m 2,1 km/h (1 Bft)
19.06.2014 00:22 14,1 C 12,8 C 85 % 1021,3 hPa 0,0 l/m 0 min 0 min 0,0 UV-I 0 W/m 2,1 km/h (1 Bft)
19.06.2014 00:24 14,1 C 12,8 C 85 % 1021,3 hPa 0,0 l/m 0 min 0 min 0,0 UV-I 0 W/m 4,2 km/h (1 Bft)
19.06.2014 00:26 14,1 C 12,8 C 85 % 1021,3 hPa 0,0 l/m 0 min 0 min 0,0 UV-I 0 W/m 0,0 km/h (0 Bft)
19.06.2014 00:28 14,0 C 12,8 C 85 % 1021,3 hPa 0,0 l/m 0 min 0 min 0,0 UV-I 0 W/m 2,1 km/h (1 Bft)
19.06.2014 00:30 13,9 C 12,2 C 85 % 1021,3 hPa 0,0 l/m 0 min 0 min 0,0 UV-I 0 W/m 0,0 km/h (0 Bft)
19.06.2014 00:32 13,9 C 12,2 C 85 % 1021,3 hPa 0,0 l/m 0 min 0 min 0,0 UV-I 0 W/m 0,0 km/h (0 Bft)
19.06.2014 00:34 13,8 C 12,2 C 85 % 1021,2 hPa 0,0 l/m 0 min 0 min 0,0 UV-I 0 W/m 0,0 km/h (0 Bft)
19.06.2014 00:36 13,8 C 12,2 C 85 % 1021,3 hPa 0,0 l/m 0 min 0 min 0,0 UV-I 0 W/m 0,0 km/h (0 Bft)
19.06.2014 00:38 13,7 C 12,2 C 86 % 1021,2 hPa 0,0 l/m 0 min 0 min 0,0 UV-I 0 W/m 0,0 km/h (0 Bft)
19.06.2014 00:40 13,7 C 12,2 C 86 % 1021,2 hPa 0,0 l/m 0 min 0 min 0,0 UV-I 0 W/m 0,0 km/h (0 Bft)
19.06.2014 00:42 13,7 C 12,2 C 86 % 1021,2 hPa 0,0 l/m 0 min 0 min 0,0 UV-I 0 W/m 0,0 km/h (0 Bft)
19.06.2014 00:44 13,6 C 12,2 C 86 % 1021,2 hPa 0,0 l/m 0 min 0 min 0,0 UV-I 0 W/m 0,0 km/h (0 Bft)
19.06.2014 00:46 13,6 C 11,7 C 86 % 1021,3 hPa 0,0 l/m 0 min 0 min 0,0 UV-I 0 W/m 0,0 km/h (0 Bft)
19.06.2014 00:48 13,5 C 11,7 C 86 % 1021,2 hPa 0,0 l/m 0 min 0 min 0,0 UV-I 0 W/m 0,0 km/h (0 Bft)
19.06.2014 00:50 13,4 C 11,7 C 87 % 1021,3 hPa 0,0 l/m 0 min 0 min 0,0 UV-I 0 W/m 0,0 km/h (0 Bft)
19.06.2014 00:52 13,4 C 11,7 C 87 % 1021,2 hPa 0,0 l/m 0 min 0 min 0,0 UV-I 0 W/m 2,1 km/h (1 Bft)
19.06.2014 00:54 13,4 C 11,7 C 87 % 1021,2 hPa 0,0 l/m 0 min 0 min 0,0 UV-I 0 W/m 0,0 km/h (0 Bft)
19.06.2014 00:56 13,4 C 11,7 C 87 % 1021,3 hPa 0,0 l/m 0 min 0 min 0,0 UV-I 0 W/m 0,0 km/h (0 Bft)
19.06.2014 00:58 13,3 C 11,7 C 87 % 1021,3 hPa 0,0 l/m 0 min 0 min 0,0 UV-I 0 W/m 0,0 km/h (0 Bft)
19.06.2014 01:00 13,3 C 11,7 C 87 % 1021,3 hPa 0,0 l/m 0 min 0 min 0,0 UV-I 0 W/m 0,0 km/h (0 Bft)
19.06.2014 01:02 13,3 C 11,7 C 87 % 1021,3 hPa 0,0 l/m 0 min 0 min 0,0 UV-I 0 W/m 0,0 km/h (0 Bft)
19.06.2014 01:04 13,2 C 11,7 C 88 % 1021,2 hPa 0,0 l/m 0 min 0 min 0,0 UV-I 0 W/m 4,2 km/h (1 Bft)
19.06.2014 01:06 13,2 C 11,7 C 88 % 1021,3 hPa 0,0 l/m 0 min 0 min 0,0 UV-I 0 W/m 2,1 km/h (1 Bft)
19.06.2014 01:08 13,2 C 11,7 C 88 % 1021,3 hPa 0,0 l/m 0 min 0 min 0,0 UV-I 0 W/m 0,0 km/h (0 Bft)
19.06.2014 01:10 13,1 C 11,7 C 88 % 1021,3 hPa 0,0 l/m 0 min 0 min 0,0 UV-I 0 W/m 0,0 km/h (0 Bft)
19.06.2014 01:12 13,1 C 11,7 C 88 % 1021,3 hPa 0,0 l/m 0 min 0 min 0,0 UV-I 0 W/m 0,0 km/h (0 Bft)
19.06.2014 01:14 13,1 C 11,7 C 88 % 1021,3 hPa 0,0 l/m 0 min 0 min 0,0 UV-I 0 W/m 0,0 km/h (0 Bft)
19.06.2014 01:16 13,1 C 11,7 C 88 % 1021,3 hPa 0,0 l/m 0 min 0 min 0,0 UV-I 0 W/m 0,0 km/h (0 Bft)
19.06.2014 01:18 13,1 C 11,7 C 89 % 1021,3 hPa 0,0 l/m 0 min 0 min 0,0 UV-I 0 W/m 0,0 km/h (0 Bft)
19.06.2014 01:20 13,1 C 11,7 C 89 % 1021,3 hPa 0,0 l/m 0 min 0 min 0,0 UV-I 0 W/m 2,1 km/h (1 Bft)
19.06.2014 01:22 13,1 C 11,7 C 89 % 1021,2 hPa 0,0 l/m 0 min 0 min 0,0 UV-I 0 W/m 0,0 km/h (0 Bft)
19.06.2014 01:24 13,0 C 11,7 C 89 % 1021,2 hPa 0,0 l/m 0 min 0 min 0,0 UV-I 0 W/m 0,0 km/h (0 Bft)
19.06.2014 01:26 12,9 C 11,1 C 89 % 1021,2 hPa 0,0 l/m 0 min 0 min 0,0 UV-I 0 W/m 0,0 km/h (0 Bft)
19.06.2014 01:28 12,9 C 11,1 C 89 % 1021,2 hPa 0,0 l/m 0 min 0 min 0,0 UV-I 0 W/m 0,0 km/h (0 Bft)
19.06.2014 01:30 12,8 C 11,1 C 89 % 1021,2 hPa 0,0 l/m 0 min 0 min 0,0 UV-I 0 W/m 2,1 km/h (1 Bft)
19.06.2014 01:32 12,8 C 11,1 C 89 % 1021,3 hPa 0,0 l/m 0 min 0 min 0,0 UV-I 0 W/m 0,0 km/h (0 Bft)
19.06.2014 01:34 12,8 C 11,1 C 89 % 1021,3 hPa 0,0 l/m 0 min 0 min 0,0 UV-I 0 W/m 0,0 km/h (0 Bft)
19.06.2014 01:36 12,8 C 11,1 C 90 % 1021,3 hPa 0,0 l/m 0 min 0 min 0,0 UV-I 0 W/m 0,0 km/h (0 Bft)
19.06.2014 01:38 12,7 C 11,1 C 90 % 1021,2 hPa 0,0 l/m 0 min 0 min 0,0 UV-I 0 W/m 0,0 km/h (0 Bft)
19.06.2014 01:40 12,7 C 11,1 C 90 % 1021,2 hPa 0,0 l/m 0 min 0 min 0,0 UV-I 0 W/m 0,0 km/h (0 Bft)
19.06.2014 01:42 12,7 C 11,1 C 90 % 1021,2 hPa 0,0 l/m 0 min 0 min 0,0 UV-I 0 W/m 0,0 km/h (0 Bft)
19.06.2014 01:44 12,6 C 11,1 C 90 % 1021,2 hPa 0,0 l/m 0 min 0 min 0,0 UV-I 0 W/m 0,0 km/h (0 Bft)
19.06.2014 01:46 12,6 C 11,1 C 90 % 1021,3 hPa 0,0 l/m 0 min 0 min 0,0 UV-I 0 W/m 0,0 km/h (0 Bft)
19.06.2014 01:48 12,6 C 10,6 C 90 % 1021,2 hPa 0,0 l/m 0 min 0 min 0,0 UV-I 0 W/m 0,0 km/h (0 Bft)
19.06.2014 01:50 12,5 C 10,6 C 90 % 1021,2 hPa 0,0 l/m 0 min 0 min 0,0 UV-I 0 W/m 0,0 km/h (0 Bft)
19.06.2014 01:52 12,5 C 10,6 C 90 % 1021,2 hPa 0,0 l/m 0 min 0 min 0,0 UV-I 0 W/m 0,0 km/h (0 Bft)
19.06.2014 01:54 12,4 C 10,6 C 90 % 1021,2 hPa 0,0 l/m 0 min 0 min 0,0 UV-I 0 W/m 0,0 km/h (0 Bft)
19.06.2014 01:56 12,4 C 10,6 C 91 % 1021,3 hPa 0,0 l/m 0 min 0 min 0,0 UV-I 0 W/m 0,0 km/h (0 Bft)
19.06.2014 01:58 12,4 C 10,6 C 91 % 1021,2 hPa 0,0 l/m 0 min 0 min 0,0 UV-I 0 W/m 0,0 km/h (0 Bft)
19.06.2014 02:00 12,3 C 10,6 C 91 % 1021,2 hPa 0,0 l/m 0 min 0 min 0,0 UV-I 0 W/m 0,0 km/h (0 Bft)
19.06.2014 02:02 12,3 C 10,6 C 91 % 1021,2 hPa 0,0 l/m 0 min 0 min 0,0 UV-I 0 W/m 0,0 km/h (0 Bft)
19.06.2014 02:04 12,3 C 10,6 C 91 % 1021,2 hPa 0,0 l/m 0 min 0 min 0,0 UV-I 0 W/m 0,0 km/h (0 Bft)
19.06.2014 02:06 12,2 C 10,6 C 91 % 1021,2 hPa 0,0 l/m 0 min 0 min 0,0 UV-I 0 W/m 0,0 km/h (0 Bft)
19.06.2014 02:08 12,2 C 10,6 C 91 % 1021,2 hPa 0,0 l/m 0 min 0 min 0,0 UV-I 0 W/m 0,0 km/h (0 Bft)
19.06.2014 02:10 12,2 C 10,6 C 91 % 1021,3 hPa 0,0 l/m 0 min 0 min 0,0 UV-I 0 W/m 0,0 km/h (0 Bft)
19.06.2014 02:12 12,1 C 10,6 C 91 % 1021,2 hPa 0,0 l/m 0 min 0 min 0,0 UV-I 0 W/m 0,0 km/h (0 Bft)
19.06.2014 02:14 12,1 C 10,6 C 91 % 1021,2 hPa 0,0 l/m 0 min 0 min 0,0 UV-I 0 W/m 0,0 km/h (0 Bft)
19.06.2014 02:16 12,0 C 10,6 C 91 % 1021,3 hPa 0,0 l/m 0 min 0 min 0,0 UV-I 0 W/m 0,0 km/h (0 Bft)
19.06.2014 02:18 12,0 C 10,6 C 92 % 1021,3 hPa 0,0 l/m 0 min 0 min 0,0 UV-I 0 W/m 0,0 km/h (0 Bft)
19.06.2014 02:20 11,9 C 10,6 C 92 % 1021,2 hPa 0,0 l/m 0 min 0 min 0,0 UV-I 0 W/m 0,0 km/h (0 Bft)
19.06.2014 02:22 11,9 C 10,6 C 92 % 1021,2 hPa 0,0 l/m 0 min 0 min 0,0 UV-I 0 W/m 0,0 km/h (0 Bft)
19.06.2014 02:24 11,9 C 10,0 C 92 % 1021,2 hPa 0,0 l/m 0 min 0 min 0,0 UV-I 0 W/m 0,0 km/h (0 Bft)
19.06.2014 02:26 11,8 C 10,0 C 92 % 1021,2 hPa 0,0 l/m 0 min 0 min 0,0 UV-I 0 W/m 0,0 km/h (0 Bft)
19.06.2014 02:28 11,8 C 10,0 C 92 % 1021,2 hPa 0,0 l/m 0 min 0 min 0,0 UV-I 0 W/m 0,0 km/h (0 Bft)
19.06.2014 02:30 11,8 C 10,0 C 92 % 1021,1 hPa 0,0 l/m 0 min 0 min 0,0 UV-I 0 W/m 0,0 km/h (0 Bft)
19.06.2014 02:32 11,8 C 10,0 C 92 % 1021,2 hPa 0,0 l/m 0 min 0 min 0,0 UV-I 0 W/m 0,0 km/h (0 Bft)
19.06.2014 02:34 11,8 C 10,0 C 92 % 1021,1 hPa 0,0 l/m 0 min 0 min 0,0 UV-I 0 W/m 0,0 km/h (0 Bft)
19.06.2014 02:36 11,7 C 10,0 C 92 % 1021,1 hPa 0,0 l/m 0 min 0 min 0,0 UV-I 0 W/m 0,0 km/h (0 Bft)
19.06.2014 02:38 11,7 C 10,0 C 93 % 1021,1 hPa 0,0 l/m 0 min 0 min 0,0 UV-I 0 W/m 0,0 km/h (0 Bft)
19.06.2014 02:40 11,7 C 10,0 C 93 % 1021,2 hPa 0,0 l/m 0 min 0 min 0,0 UV-I 0 W/m 0,0 km/h (0 Bft)
19.06.2014 02:42 11,7 C 10,0 C 93 % 1021,2 hPa 0,0 l/m 0 min 0 min 0,0 UV-I 0 W/m 0,0 km/h (0 Bft)
19.06.2014 02:44 11,7 C 10,0 C 93 % 1021,1 hPa 0,0 l/m 0 min 0 min 0,0 UV-I 0 W/m 0,0 km/h (0 Bft)
19.06.2014 02:46 11,6 C 10,0 C 93 % 1021,2 hPa 0,0 l/m 0 min 0 min 0,0 UV-I 0 W/m 0,0 km/h (0 Bft)
19.06.2014 02:48 11,6 C 10,0 C 93 % 1021,1 hPa 0,0 l/m 0 min 0 min 0,0 UV-I 0 W/m 0,0 km/h (0 Bft)
19.06.2014 02:50 11,5 C 10,0 C 93 % 1021,1 hPa 0,0 l/m 0 min 0 min 0,0 UV-I 0 W/m 0,0 km/h (0 Bft)
19.06.2014 02:52 11,5 C 10,0 C 93 % 1021,1 hPa 0,0 l/m 0 min 0 min 0,0 UV-I 0 W/m 0,0 km/h (0 Bft)
19.06.2014 02:54 11,4 C 10,0 C 93 % 1021,1 hPa 0,0 l/m 0 min 0 min 0,0 UV-I 0 W/m 0,0 km/h (0 Bft)
19.06.2014 02:56 11,4 C 10,0 C 93 % 1021,1 hPa 0,0 l/m 0 min 0 min 0,0 UV-I 0 W/m 0,0 km/h (0 Bft)
19.06.2014 02:58 11,4 C 10,0 C 93 % 1021,1 hPa 0,0 l/m 0 min 0 min 0,0 UV-I 0 W/m 0,0 km/h (0 Bft)
19.06.2014 03:00 11,4 C 10,0 C 94 % 1021,0 hPa 0,0 l/m 0 min 0 min 0,0 UV-I 0 W/m 0,0 km/h (0 Bft)
19.06.2014 03:02 11,4 C 10,0 C 94 % 1021,0 hPa 0,0 l/m 0 min 0 min 0,0 UV-I 0 W/m 0,0 km/h (0 Bft)
19.06.2014 03:04 11,4 C 10,0 C 94 % 1021,0 hPa 0,0 l/m 0 min 0 min 0,0 UV-I 0 W/m 0,0 km/h (0 Bft)
19.06.2014 03:06 11,4 C 10,0 C 94 % 1021,0 hPa 0,0 l/m 0 min 0 min 0,0 UV-I 0 W/m 0,0 km/h (0 Bft)
19.06.2014 03:08 11,4 C 10,0 C 94 % 1021,0 hPa 0,0 l/m 0 min 0 min 0,0 UV-I 0 W/m 0,0 km/h (0 Bft)
19.06.2014 03:10 11,3 C 10,0 C 94 % 1021,0 hPa 0,0 l/m 0 min 0 min 0,0 UV-I 0 W/m 0,0 km/h (0 Bft)
19.06.2014 03:12 11,3 C 10,0 C 94 % 1021,0 hPa 0,0 l/m 0 min 0 min 0,0 UV-I 0 W/m 0,0 km/h (0 Bft)
19.06.2014 03:14 11,3 C 10,0 C 94 % 1021,0 hPa 0,0 l/m 0 min 0 min 0,0 UV-I 0 W/m 0,0 km/h (0 Bft)
19.06.2014 03:16 11,3 C 10,0 C 94 % 1021,0 hPa 0,0 l/m 0 min 0 min 0,0 UV-I 0 W/m 0,0 km/h (0 Bft)
19.06.2014 03:18 11,3 C 9,4 C 94 % 1021,0 hPa 0,0 l/m 0 min 0 min 0,0 UV-I 0 W/m 0,0 km/h (0 Bft)
19.06.2014 03:20 11,3 C 9,4 C 94 % 1021,0 hPa 0,0 l/m 0 min 0 min 0,0 UV-I 0 W/m 0,0 km/h (0 Bft)
19.06.2014 03:22 11,3 C 9,4 C 94 % 1021,0 hPa 0,0 l/m 0 min 0 min 0,0 UV-I 0 W/m 0,0 km/h (0 Bft)
19.06.2014 03:24 11,2 C 9,4 C 94 % 1021,0 hPa 0,0 l/m 0 min 0 min 0,0 UV-I 0 W/m 0,0 km/h (0 Bft)
19.06.2014 03:26 11,2 C 9,4 C 94 % 1021,0 hPa 0,0 l/m 0 min 0 min 0,0 UV-I 0 W/m 0,0 km/h (0 Bft)
19.06.2014 03:28 11,1 C 9,4 C 95 % 1021,0 hPa 0,0 l/m 0 min 0 min 0,0 UV-I 0 W/m 0,0 km/h (0 Bft)
19.06.2014 03:30 11,1 C 9,4 C 95 % 1021,0 hPa 0,0 l/m 0 min 0 min 0,0 UV-I 0 W/m 0,0 km/h (0 Bft)
19.06.2014 03:32 11,1 C 9,4 C 95 % 1021,0 hPa 0,0 l/m 0 min 0 min 0,0 UV-I 0 W/m 0,0 km/h (0 Bft)
19.06.2014 03:34 11,1 C 9,4 C 95 % 1021,0 hPa 0,0 l/m 0 min 0 min 0,0 UV-I 0 W/m 0,0 km/h (0 Bft)
19.06.2014 03:36 11,1 C 9,4 C 95 % 1021,0 hPa 0,0 l/m 0 min 0 min 0,0 UV-I 0 W/m 0,0 km/h (0 Bft)
19.06.2014 03:38 11,1 C 9,4 C 95 % 1020,9 hPa 0,0 l/m 0 min 0 min 0,0 UV-I 0 W/m 0,0 km/h (0 Bft)
19.06.2014 03:40 11,1 C 9,4 C 95 % 1021,0 hPa 0,0 l/m 0 min 0 min 0,0 UV-I 0 W/m 0,0 km/h (0 Bft)
19.06.2014 03:42 11,0 C 9,4 C 95 % 1021,0 hPa 0,0 l/m 0 min 0 min 0,0 UV-I 0 W/m 0,0 km/h (0 Bft)
19.06.2014 03:44 11,0 C 9,4 C 95 % 1021,0 hPa 0,0 l/m 0 min 0 min 0,0 UV-I 0 W/m 0,0 km/h (0 Bft)
19.06.2014 03:46 11,0 C 9,4 C 95 % 1021,0 hPa 0,0 l/m 0 min 0 min 0,0 UV-I 0 W/m 0,0 km/h (0 Bft)
19.06.2014 03:48 11,0 C 9,4 C 95 % 1020,9 hPa 0,0 l/m 0 min 0 min 0,0 UV-I 0 W/m 0,0 km/h (0 Bft)
19.06.2014 03:50 10,9 C 9,4 C 95 % 1021,0 hPa 0,0 l/m 0 min 0 min 0,0 UV-I 0 W/m 0,0 km/h (0 Bft)
19.06.2014 03:52 10,9 C 9,4 C 95 % 1021,0 hPa 0,0 l/m 0 min 0 min 0,0 UV-I 0 W/m 0,0 km/h (0 Bft)
19.06.2014 03:54 10,9 C 9,4 C 95 % 1021,1 hPa 0,0 l/m 0 min 0 min 0,0 UV-I 0 W/m 0,0 km/h (0 Bft)
19.06.2014 03:56 10,8 C 9,4 C 95 % 1021,0 hPa 0,0 l/m 0 min 0 min 0,0 UV-I 0 W/m 0,0 km/h (0 Bft)
19.06.2014 03:58 10,8 C 9,4 C 95 % 1021,0 hPa 0,0 l/m 0 min 0 min 0,0 UV-I 0 W/m 0,0 km/h (0 Bft)
19.06.2014 04:00 10,8 C 9,4 C 95 % 1021,0 hPa 0,0 l/m 0 min 0 min 0,0 UV-I 0 W/m 0,0 km/h (0 Bft)
19.06.2014 04:02 10,7 C 9,4 C 95 % 1021,0 hPa 0,0 l/m 0 min 0 min 0,0 UV-I 0 W/m 0,0 km/h (0 Bft)
19.06.2014 04:04 10,7 C 9,4 C 95 % 1021,0 hPa 0,0 l/m 0 min 0 min 0,0 UV-I 0 W/m 0,0 km/h (0 Bft)
19.06.2014 04:06 10,7 C 9,4 C 95 % 1021,0 hPa 0,0 l/m 0 min 0 min 0,0 UV-I 0 W/m 0,0 km/h (0 Bft)
19.06.2014 04:08 10,7 C 9,4 C 95 % 1020,9 hPa 0,0 l/m 0 min 0 min 0,0 UV-I 0 W/m 0,0 km/h (0 Bft)
19.06.2014 04:10 10,7 C 9,4 C 95 % 1020,9 hPa 0,0 l/m 0 min 0 min 0,0 UV-I 0 W/m 0,0 km/h (0 Bft)
19.06.2014 04:12 10,7 C 9,4 C 95 % 1021,0 hPa 0,0 l/m 0 min 0 min 0,0 UV-I 0 W/m 0,0 km/h (0 Bft)
19.06.2014 04:14 10,7 C 9,4 C 95 % 1020,9 hPa 0,0 l/m 0 min 0 min 0,0 UV-I 0 W/m 0,0 km/h (0 Bft)
19.06.2014 04:16 10,7 C 9,4 C 96 % 1020,9 hPa 0,0 l/m 0 min 0 min 0,0 UV-I 0 W/m 0,0 km/h (0 Bft)
19.06.2014 04:18 10,7 C 9,4 C 96 % 1020,9 hPa 0,0 l/m 0 min 0 min 0,0 UV-I 0 W/m 0,0 km/h (0 Bft)
19.06.2014 04:20 10,7 C 9,4 C 96 % 1020,9 hPa 0,0 l/m 0 min 0 min 0,0 UV-I 0 W/m 0,0 km/h (0 Bft)
19.06.2014 04:22 10,7 C 9,4 C 96 % 1020,8 hPa 0,0 l/m 0 min 0 min 0,0 UV-I 0 W/m 0,0 km/h (0 Bft)
19.06.2014 04:24 10,7 C 9,4 C 96 % 1020,9 hPa 0,0 l/m 0 min 0 min 0,0 UV-I 0 W/m 0,0 km/h (0 Bft)
19.06.2014 04:26 10,7 C 9,4 C 96 % 1020,8 hPa 0,0 l/m 0 min 0 min 0,0 UV-I 0 W/m 0,0 km/h (0 Bft)
19.06.2014 04:28 10,7 C 9,4 C 96 % 1020,8 hPa 0,0 l/m 0 min 0 min 0,0 UV-I 0 W/m 0,0 km/h (0 Bft)
19.06.2014 04:30 10,6 C 8,9 C 96 % 1020,8 hPa 0,0 l/m 0 min 0 min 0,0 UV-I 0 W/m 0,0 km/h (0 Bft)
19.06.2014 04:32 10,6 C 8,9 C 96 % 1020,8 hPa 0,0 l/m 0 min 0 min 0,0 UV-I 0 W/m 0,0 km/h (0 Bft)
19.06.2014 04:34 10,6 C 8,9 C 96 % 1020,8 hPa 0,0 l/m 0 min 0 min 0,0 UV-I 0 W/m 0,0 km/h (0 Bft)
19.06.2014 04:36 10,6 C 9,4 C 96 % 1020,8 hPa 0,0 l/m 0 min 0 min 0,0 UV-I 0 W/m 0,0 km/h (0 Bft)
19.06.2014 04:38 10,7 C 9,4 C 96 % 1020,8 hPa 0,0 l/m 0 min 0 min 0,0 UV-I 0 W/m 0,0 km/h (0 Bft)
19.06.2014 04:40 10,7 C 9,4 C 96 % 1020,8 hPa 0,0 l/m 0 min 0 min 0,0 UV-I 0 W/m 0,0 km/h (0 Bft)
19.06.2014 04:42 10,7 C 9,4 C 96 % 1020,8 hPa 0,0 l/m 0 min 0 min 0,0 UV-I 0 W/m 0,0 km/h (0 Bft)
19.06.2014 04:44 10,7 C 9,4 C 96 % 1020,8 hPa 0,0 l/m 0 min 0 min 0,0 UV-I 0 W/m 2,1 km/h (1 Bft)
19.06.2014 04:46 10,7 C 9,4 C 96 % 1020,8 hPa 0,0 l/m 0 min 0 min 0,0 UV-I 0 W/m 0,0 km/h (0 Bft)
19.06.2014 04:48 10,8 C 9,4 C 96 % 1020,7 hPa 0,0 l/m 0 min 0 min 0,0 UV-I 0 W/m 0,0 km/h (0 Bft)
19.06.2014 04:50 10,8 C 9,4 C 96 % 1020,7 hPa 0,0 l/m 0 min 0 min 0,0 UV-I 0 W/m 0,0 km/h (0 Bft)
19.06.2014 04:52 10,8 C 9,4 C 96 % 1020,8 hPa 0,0 l/m 0 min 0 min 0,0 UV-I 0 W/m 2,1 km/h (1 Bft)
19.06.2014 04:54 10,8 C 9,4 C 96 % 1020,8 hPa 0,0 l/m 0 min 0 min 0,0 UV-I 0 W/m 0,0 km/h (0 Bft)
19.06.2014 04:56 10,8 C 9,4 C 96 % 1020,8 hPa 0,0 l/m 0 min 0 min 0,0 UV-I 0 W/m 0,0 km/h (0 Bft)
19.06.2014 04:58 10,8 C 9,4 C 96 % 1020,8 hPa 0,0 l/m 0 min 0 min 0,0 UV-I 0 W/m 0,0 km/h (0 Bft)
19.06.2014 05:00 10,8 C 9,4 C 96 % 1020,8 hPa 0,0 l/m 0 min 0 min 0,0 UV-I 0 W/m 0,0 km/h (0 Bft)
19.06.2014 05:02 10,8 C 9,4 C 96 % 1020,7 hPa 0,0 l/m 0 min 0 min 0,0 UV-I 0 W/m 0,0 km/h (0 Bft)
19.06.2014 05:04 10,8 C 9,4 C 96 % 1020,7 hPa 0,0 l/m 0 min 0 min 0,0 UV-I 0 W/m 0,0 km/h (0 Bft)
19.06.2014 05:06 10,8 C 9,4 C 96 % 1020,7 hPa 0,0 l/m 0 min 0 min 0,0 UV-I 0 W/m 0,0 km/h (0 Bft)
19.06.2014 05:08 10,8 C 9,4 C 96 % 1020,7 hPa 0,0 l/m 0 min 0 min 0,0 UV-I 0 W/m 0,0 km/h (0 Bft)
19.06.2014 05:10 10,7 C 9,4 C 96 % 1020,6 hPa 0,0 l/m 0 min 0 min 0,0 UV-I 0 W/m 0,0 km/h (0 Bft)
19.06.2014 05:12 10,7 C 9,4 C 96 % 1020,6 hPa 0,0 l/m 0 min 0 min 0,0 UV-I 6 W/m 0,0 km/h (0 Bft)
19.06.2014 05:14 10,7 C 10,0 C 96 % 1020,6 hPa 0,0 l/m 0 min 0 min 0,0 UV-I 6 W/m 0,0 km/h (0 Bft)
19.06.2014 05:16 10,8 C 10,0 C 96 % 1020,6 hPa 0,0 l/m 0 min 0 min 0,0 UV-I 6 W/m 0,0 km/h (0 Bft)
19.06.2014 05:18 10,8 C 10,0 C 96 % 1020,6 hPa 0,0 l/m 0 min 0 min 0,0 UV-I 6 W/m 0,0 km/h (0 Bft)
19.06.2014 05:20 10,8 C 10,0 C 96 % 1020,7 hPa 0,0 l/m 0 min 0 min 0,0 UV-I 6 W/m 0,0 km/h (0 Bft)
19.06.2014 05:22 10,8 C 10,0 C 96 % 1020,7 hPa 0,0 l/m 0 min 0 min 0,0 UV-I 6 W/m 0,0 km/h (0 Bft)
19.06.2014 05:24 10,8 C 10,0 C 96 % 1020,7 hPa 0,0 l/m 0 min 0 min 0,0 UV-I 6 W/m 2,1 km/h (1 Bft)
19.06.2014 05:26 10,8 C 10,0 C 96 % 1020,7 hPa 0,0 l/m 0 min 0 min 0,0 UV-I 8 W/m 0,0 km/h (0 Bft)
19.06.2014 05:28 10,8 C 10,0 C 96 % 1020,6 hPa 0,0 l/m 0 min 0 min 0,0 UV-I 8 W/m 0,0 km/h (0 Bft)
19.06.2014 05:30 10,9 C 10,0 C 96 % 1020,7 hPa 0,0 l/m 0 min 0 min 0,0 UV-I 8 W/m 0,0 km/h (0 Bft)
19.06.2014 05:32 10,9 C 10,0 C 96 % 1020,7 hPa 0,0 l/m 0 min 0 min 0,0 UV-I 8 W/m 0,0 km/h (0 Bft)
19.06.2014 05:34 10,9 C 10,0 C 96 % 1020,6 hPa 0,0 l/m 0 min 0 min 0,0 UV-I 8 W/m 0,0 km/h (0 Bft)
19.06.2014 05:36 10,9 C 10,0 C 96 % 1020,7 hPa 0,0 l/m 0 min 0 min 0,0 UV-I 10 W/m 0,0 km/h (0 Bft)
19.06.2014 05:38 10,9 C 10,6 C 96 % 1020,7 hPa 0,0 l/m 0 min 0 min 0,0 UV-I 10 W/m 0,0 km/h (0 Bft)
19.06.2014 05:40 11,0 C 10,6 C 96 % 1020,6 hPa 0,0 l/m 0 min 0 min 0,0 UV-I 13 W/m 0,0 km/h (0 Bft)
19.06.2014 05:42 11,1 C 10,6 C 96 % 1020,6 hPa 0,0 l/m 0 min 0 min 0,0 UV-I 13 W/m 0,0 km/h (0 Bft)
19.06.2014 05:44 11,1 C 10,6 C 96 % 1020,6 hPa 0,0 l/m 0 min 0 min 0,0 UV-I 14 W/m 0,0 km/h (0 Bft)
19.06.2014 05:46 11,2 C 10,6 C 96 % 1020,6 hPa 0,0 l/m 0 min 0 min 0,0 UV-I 14 W/m 0,0 km/h (0 Bft)
19.06.2014 05:48 11,2 C 10,6 C 96 % 1020,6 hPa 0,0 l/m 0 min 0 min 0,0 UV-I 14 W/m 0,0 km/h (0 Bft)
19.06.2014 05:50 11,3 C 10,6 C 96 % 1020,6 hPa 0,0 l/m 0 min 0 min 0,0 UV-I 16 W/m 0,0 km/h (0 Bft)
19.06.2014 05:52 11,3 C 10,6 C 96 % 1020,6 hPa 0,0 l/m 0 min 0 min 0,0 UV-I 16 W/m 0,0 km/h (0 Bft)
19.06.2014 05:54 11,3 C 10,6 C 96 % 1020,5 hPa 0,0 l/m 0 min 0 min 0,0 UV-I 18 W/m 0,0 km/h (0 Bft)
19.06.2014 05:56 11,4 C 11,1 C 96 % 1020,6 hPa 0,0 l/m 0 min 0 min 0,0 UV-I 18 W/m 0,0 km/h (0 Bft)
19.06.2014 05:58 11,4 C 11,1 C 96 % 1020,6 hPa 0,0 l/m 0 min 0 min 0,0 UV-I 21 W/m 0,0 km/h (0 Bft)
19.06.2014 06:00 11,4 C 11,1 C 96 % 1020,6 hPa 0,0 l/m 0 min 0 min 0,0 UV-I 21 W/m 0,0 km/h (0 Bft)
19.06.2014 06:02 11,4 C 11,1 C 96 % 1020,6 hPa 0,0 l/m 0 min 0 min 0,0 UV-I 21 W/m 0,0 km/h (0 Bft)
19.06.2014 06:06 11,5 C 11,1 C 96 % 1020,6 hPa 0,0 l/m 0 min 0 min 0,0 UV-I 22 W/m 2,1 km/h (1 Bft)
19.06.2014 06:08 11,5 C 11,1 C 96 % 1020,6 hPa 0,0 l/m 0 min 0 min 0,0 UV-I 24 W/m 0,0 km/h (0 Bft)
19.06.2014 06:10 11,6 C 11,1 C 96 % 1020,6 hPa 0,0 l/m 0 min 0 min 0,0 UV-I 24 W/m 0,0 km/h (0 Bft)
19.06.2014 06:12 11,6 C 11,1 C 96 % 1020,6 hPa 0,0 l/m 0 min 0 min 0,0 UV-I 26 W/m 0,0 km/h (0 Bft)
19.06.2014 06:14 11,7 C 11,1 C 96 % 1020,6 hPa 0,0 l/m 0 min 0 min 0,0 UV-I 29 W/m 0,0 km/h (0 Bft)
19.06.2014 06:16 11,7 C 11,1 C 96 % 1020,6 hPa 0,0 l/m 0 min 0 min 0,0 UV-I 29 W/m 0,0 km/h (0 Bft)
19.06.2014 06:18 11,7 C 11,1 C 96 % 1020,6 hPa 0,0 l/m 0 min 0 min 0,0 UV-I 29 W/m 0,0 km/h (0 Bft)
19.06.2014 06:20 11,8 C 11,1 C 96 % 1020,6 hPa 0,0 l/m 0 min 0 min 0,0 UV-I 30 W/m 0,0 km/h (0 Bft)
19.06.2014 06:22 11,8 C 11,1 C 96 % 1020,5 hPa 0,0 l/m 0 min 0 min 0,0 UV-I 32 W/m 0,0 km/h (0 Bft)
19.06.2014 06:24 11,8 C 11,7 C 96 % 1020,5 hPa 0,0 l/m 0 min 0 min 0,0 UV-I 34 W/m 0,0 km/h (0 Bft)
19.06.2014 06:26 11,8 C 11,7 C 96 % 1020,5 hPa 0,0 l/m 0 min 0 min 0,0 UV-I 34 W/m 0,0 km/h (0 Bft)
19.06.2014 06:28 11,9 C 11,7 C 96 % 1020,5 hPa 0,0 l/m 0 min 0 min 0,0 UV-I 37 W/m 0,0 km/h (0 Bft)
19.06.2014 06:30 11,9 C 11,7 C 96 % 1020,5 hPa 0,0 l/m 0 min 0 min 0,0 UV-I 37 W/m 0,0 km/h (0 Bft)
19.06.2014 06:32 11,9 C 11,7 C 96 % 1020,5 hPa 0,0 l/m 0 min 0 min 0,0 UV-I 37 W/m 2,1 km/h (1 Bft)
19.06.2014 06:34 11,9 C 11,7 C 95 % 1020,5 hPa 0,0 l/m 0 min 0 min 0,0 UV-I 37 W/m 0,0 km/h (0 Bft)
19.06.2014 06:36 12,0 C 11,7 C 96 % 1020,5 hPa 0,0 l/m 0 min 0 min 0,0 UV-I 38 W/m 0,0 km/h (0 Bft)
19.06.2014 06:38 12,1 C 11,7 C 96 % 1020,5 hPa 0,0 l/m 0 min 0 min 0,0 UV-I 38 W/m 0,0 km/h (0 Bft)
19.06.2014 06:40 12,1 C 11,7 C 95 % 1020,5 hPa 0,0 l/m 0 min 0 min 0,0 UV-I 38 W/m 0,0 km/h (0 Bft)
19.06.2014 06:42 12,2 C 11,7 C 95 % 1020,5 hPa 0,0 l/m 0 min 0 min 0,0 UV-I 38 W/m 0,0 km/h (0 Bft)
19.06.2014 06:44 12,2 C 11,7 C 95 % 1020,5 hPa 0,0 l/m 0 min 0 min 0,0 UV-I 37 W/m 0,0 km/h (0 Bft)
19.06.2014 06:46 12,2 C 11,7 C 95 % 1020,4 hPa 0,0 l/m 0 min 0 min 0,0 UV-I 37 W/m 0,0 km/h (0 Bft)
19.06.2014 06:48 12,2 C 11,7 C 95 % 1020,5 hPa 0,0 l/m 0 min 0 min 0,0 UV-I 38 W/m 0,0 km/h (0 Bft)
19.06.2014 06:50 12,2 C 11,7 C 95 % 1020,5 hPa 0,0 l/m 0 min 0 min 0,0 UV-I 34 W/m 0,0 km/h (0 Bft)
19.06.2014 06:52 12,2 C 11,7 C 95 % 1020,4 hPa 0,0 l/m 0 min 0 min 0,0 UV-I 30 W/m 0,0 km/h (0 Bft)
19.06.2014 06:54 12,2 C 11,7 C 95 % 1020,5 hPa 0,0 l/m 0 min 0 min 0,0 UV-I 32 W/m 0,0 km/h (0 Bft)
19.06.2014 06:56 12,3 C 11,7 C 95 % 1020,4 hPa 0,0 l/m 0 min 0 min 0,0 UV-I 37 W/m 0,0 km/h (0 Bft)
19.06.2014 06:58 12,3 C 11,7 C 95 % 1020,4 hPa 0,0 l/m 0 min 0 min 0,0 UV-I 40 W/m 0,0 km/h (0 Bft)
19.06.2014 07:00 12,4 C 11,7 C 95 % 1020,4 hPa 0,0 l/m 0 min 0 min 0,0 UV-I 43 W/m 0,0 km/h (0 Bft)
19.06.2014 07:02 12,4 C 12,2 C 95 % 1020,4 hPa 0,0 l/m 0 min 0 min 0,0 UV-I 45 W/m 0,0 km/h (0 Bft)
19.06.2014 07:04 12,4 C 12,2 C 95 % 1020,4 hPa 0,0 l/m 0 min 0 min 0,0 UV-I 46 W/m 0,0 km/h (0 Bft)
19.06.2014 07:06 12,4 C 12,2 C 95 % 1020,4 hPa 0,0 l/m 0 min 0 min 0,0 UV-I 38 W/m 0,0 km/h (0 Bft)
19.06.2014 07:08 12,4 C 12,2 C 95 % 1020,4 hPa 0,0 l/m 0 min 0 min 0,0 UV-I 37 W/m 0,0 km/h (0 Bft)
19.06.2014 07:10 12,4 C 12,2 C 95 % 1020,5 hPa 0,0 l/m 0 min 0 min 0,0 UV-I 34 W/m 0,0 km/h (0 Bft)
19.06.2014 07:12 12,6 C 12,2 C 95 % 1020,5 hPa 0,0 l/m 0 min 0 min 0,0 UV-I 38 W/m 0,0 km/h (0 Bft)
19.06.2014 07:14 12,6 C 12,2 C 95 % 1020,5 hPa 0,0 l/m 0 min 0 min 0,0 UV-I 45 W/m 0,0 km/h (0 Bft)
19.06.2014 07:16 12,7 C 12,2 C 95 % 1020,5 hPa 0,0 l/m 0 min 0 min 0,0 UV-I 48 W/m 0,0 km/h (0 Bft)
19.06.2014 07:18 12,7 C 12,2 C 95 % 1020,5 hPa 0,0 l/m 0 min 0 min 0,0 UV-I 53 W/m 0,0 km/h (0 Bft)
19.06.2014 07:20 12,7 C 12,2 C 95 % 1020,5 hPa 0,0 l/m 0 min 0 min 0,0 UV-I 51 W/m 0,0 km/h (0 Bft)
19.06.2014 07:22 12,7 C 12,2 C 95 % 1020,5 hPa 0,0 l/m 0 min 0 min 0,0 UV-I 51 W/m 0,0 km/h (0 Bft)
19.06.2014 07:24 12,7 C 12,2 C 95 % 1020,5 hPa 0,0 l/m 0 min 0 min 0,0 UV-I 53 W/m 0,0 km/h (0 Bft)
19.06.2014 07:26 12,8 C 12,2 C 94 % 1020,5 hPa 0,0 l/m 0 min 0 min 0,0 UV-I 54 W/m 0,0 km/h (0 Bft)
19.06.2014 07:28 12,9 C 12,2 C 94 % 1020,5 hPa 0,0 l/m 0 min 0 min 0,0 UV-I 54 W/m 0,0 km/h (0 Bft)
19.06.2014 07:30 12,9 C 12,8 C 95 % 1020,4 hPa 0,0 l/m 0 min 0 min 0,0 UV-I 56 W/m 0,0 km/h (0 Bft)
19.06.2014 07:32 12,9 C 12,8 C 94 % 1020,5 hPa 0,0 l/m 0 min 0 min 0,0 UV-I 59 W/m 0,0 km/h (0 Bft)
19.06.2014 07:34 12,9 C 12,8 C 94 % 1020,5 hPa 0,0 l/m 0 min 0 min 0,0 UV-I 62 W/m 0,0 km/h (0 Bft)
19.06.2014 07:36 13,1 C 12,8 C 94 % 1020,5 hPa 0,0 l/m 0 min 0 min 0,0 UV-I 67 W/m 0,0 km/h (0 Bft)
19.06.2014 07:38 13,1 C 12,8 C 94 % 1020,5 hPa 0,0 l/m 0 min 0 min 0,0 UV-I 67 W/m 0,0 km/h (0 Bft)
19.06.2014 07:40 13,1 C 12,8 C 94 % 1020,5 hPa 0,0 l/m 0 min 0 min 0,0 UV-I 69 W/m 0,0 km/h (0 Bft)
19.06.2014 07:42 13,2 C 12,8 C 94 % 1020,6 hPa 0,0 l/m 0 min 0 min 0,0 UV-I 75 W/m 0,0 km/h (0 Bft)
19.06.2014 07:44 13,2 C 12,8 C 94 % 1020,6 hPa 0,0 l/m 0 min 0 min 0,0 UV-I 79 W/m 0,0 km/h (0 Bft)
19.06.2014 07:46 13,2 C 12,8 C 94 % 1020,6 hPa 0,0 l/m 0 min 0 min 0,0 UV-I 83 W/m 2,1 km/h (1 Bft)
19.06.2014 07:48 13,3 C 12,8 C 93 % 1020,5 hPa 0,0 l/m 0 min 0 min 0,0 UV-I 85 W/m 0,0 km/h (0 Bft)
19.06.2014 07:50 13,3 C 12,8 C 93 % 1020,5 hPa 0,0 l/m 0 min 0 min 0,0 UV-I 87 W/m 4,2 km/h (1 Bft)
19.06.2014 07:52 13,3 C 13,3 C 93 % 1020,5 hPa 0,0 l/m 0 min 0 min 0,0 UV-I 89 W/m 0,0 km/h (0 Bft)
19.06.2014 07:54 13,4 C 13,3 C 93 % 1020,5 hPa 0,0 l/m 0 min 0 min 0,0 UV-I 89 W/m 6,3 km/h (2 Bft)
19.06.2014 07:56 13,4 C 13,3 C 93 % 1020,5 hPa 0,0 l/m 0 min 0 min 0,0 UV-I 89 W/m 2,1 km/h (1 Bft)
19.06.2014 07:58 13,5 C 13,3 C 93 % 1020,5 hPa 0,0 l/m 0 min 0 min 0,0 UV-I 91 W/m 6,3 km/h (2 Bft)
19.06.2014 08:00 13,5 C 13,3 C 93 % 1020,5 hPa 0,0 l/m 0 min 0 min 0,0 UV-I 91 W/m 6,3 km/h (2 Bft)
19.06.2014 08:02 13,6 C 13,3 C 92 % 1020,5 hPa 0,0 l/m 0 min 0 min 0,0 UV-I 91 W/m 8,4 km/h (2 Bft)
19.06.2014 08:04 13,6 C 13,3 C 92 % 1020,5 hPa 0,0 l/m 0 min 0 min 0,0 UV-I 93 W/m 2,1 km/h (1 Bft)
19.06.2014 08:06 13,6 C 13,3 C 92 % 1020,5 hPa 0,0 l/m 0 min 0 min 0,0 UV-I 93 W/m 0,0 km/h (0 Bft)
19.06.2014 08:08 13,6 C 13,3 C 92 % 1020,5 hPa 0,0 l/m 0 min 0 min 0,0 UV-I 91 W/m 6,3 km/h (2 Bft)
19.06.2014 08:10 13,7 C 13,3 C 92 % 1020,5 hPa 0,0 l/m 0 min 0 min 0,0 UV-I 89 W/m 0,0 km/h (0 Bft)
19.06.2014 08:12 13,7 C 13,3 C 92 % 1020,5 hPa 0,0 l/m 0 min 0 min 0,0 UV-I 89 W/m 6,3 km/h (2 Bft)
19.06.2014 08:14 13,6 C 13,3 C 91 % 1020,6 hPa 0,0 l/m 0 min 0 min 0,0 UV-I 89 W/m 8,4 km/h (2 Bft)
19.06.2014 08:16 13,6 C 13,3 C 91 % 1020,6 hPa 0,0 l/m 0 min 0 min 0,0 UV-I 91 W/m 10,5 km/h (2 Bft)
19.06.2014 08:18 13,7 C 13,3 C 91 % 1020,6 hPa 0,0 l/m 0 min 0 min 0,0 UV-I 95 W/m 8,4 km/h (2 Bft)
19.06.2014 08:20 13,7 C 13,3 C 91 % 1020,5 hPa 0,0 l/m 0 min 0 min 0,0 UV-I 99 W/m 0,0 km/h (0 Bft)
19.06.2014 08:22 13,8 C 13,3 C 91 % 1020,6 hPa 0,0 l/m 0 min 0 min 0,0 UV-I 99 W/m 4,2 km/h (1 Bft)
19.06.2014 08:24 13,8 C 13,3 C 91 % 1020,6 hPa 0,0 l/m 0 min 0 min 0,0 UV-I 104 W/m 6,3 km/h (2 Bft)
19.06.2014 08:26 13,8 C 13,3 C 91 % 1020,6 hPa 0,0 l/m 0 min 0 min 0,0 UV-I 104 W/m 6,3 km/h (2 Bft)
19.06.2014 08:28 13,8 C 13,3 C 91 % 1020,6 hPa 0,0 l/m 0 min 0 min 0,0 UV-I 105 W/m 8,4 km/h (2 Bft)
19.06.2014 08:30 13,9 C 13,3 C 91 % 1020,7 hPa 0,0 l/m 0 min 0 min 0,0 UV-I 109 W/m 10,5 km/h (2 Bft)
19.06.2014 08:32 13,9 C 13,3 C 90 % 1020,7 hPa 0,0 l/m 0 min 0 min 0,0 UV-I 113 W/m 10,5 km/h (2 Bft)
19.06.2014 08:34 13,9 C 13,9 C 90 % 1020,6 hPa 0,0 l/m 0 min 0 min 0,0 UV-I 121 W/m 10,5 km/h (2 Bft)
19.06.2014 08:36 13,9 C 13,9 C 90 % 1020,7 hPa 0,0 l/m 0 min 0 min 0,0 UV-I 121 W/m 10,5 km/h (2 Bft)
19.06.2014 08:38 13,9 C 13,9 C 90 % 1020,7 hPa 0,0 l/m 0 min 0 min 0,0 UV-I 121 W/m 8,4 km/h (2 Bft)
19.06.2014 08:40 13,9 C 13,9 C 90 % 1020,7 hPa 0,0 l/m 0 min 0 min 0,0 UV-I 121 W/m 10,5 km/h (2 Bft)
19.06.2014 08:42 14,1 C 13,9 C 90 % 1020,6 hPa 0,0 l/m 0 min 0 min 0,0 UV-I 121 W/m 10,5 km/h (2 Bft)
19.06.2014 08:44 14,2 C 13,9 C 90 % 1020,7 hPa 0,0 l/m 0 min 0 min 0,0 UV-I 130 W/m 6,3 km/h (2 Bft)
19.06.2014 08:46 14,2 C 13,9 C 90 % 1020,7 hPa 0,0 l/m 0 min 0 min 0,0 UV-I 138 W/m 10,5 km/h (2 Bft)
19.06.2014 08:48 14,2 C 13,9 C 92 % 1020,8 hPa 0,0 l/m 0 min 0 min 0,0 UV-I 147 W/m 12,6 km/h (3 Bft)
19.06.2014 08:50 14,2 C 13,9 C 90 % 1020,7 hPa 0,0 l/m 0 min 0 min 0,0 UV-I 162 W/m 10,5 km/h (2 Bft)
19.06.2014 08:52 14,2 C 13,9 C 90 % 1020,6 hPa 0,0 l/m 0 min 0 min 0,0 UV-I 170 W/m 12,6 km/h (3 Bft)
19.06.2014 08:54 14,2 C 13,9 C 89 % 1020,7 hPa 0,0 l/m 0 min 0 min 0,0 UV-I 174 W/m 10,5 km/h (2 Bft)
19.06.2014 08:56 14,2 C 14,4 C 89 % 1020,7 hPa 0,0 l/m 0 min 0 min 0,0 UV-I 179 W/m 12,6 km/h (3 Bft)
19.06.2014 08:58 14,2 C 14,4 C 89 % 1020,8 hPa 0,0 l/m 0 min 0 min 0,0 UV-I 184 W/m 10,5 km/h (2 Bft)
19.06.2014 09:00 14,3 C 14,4 C 89 % 1020,8 hPa 0,0 l/m 0 min 0 min 0,0 UV-I 187 W/m 12,6 km/h (3 Bft)
19.06.2014 09:02 14,4 C 14,4 C 88 % 1020,9 hPa 0,0 l/m 0 min 0 min 0,0 UV-I 194 W/m 16,7 km/h (3 Bft)
19.06.2014 09:04 14,3 C 14,4 C 88 % 1020,9 hPa 0,0 l/m 0 min 0 min 0,0 UV-I 213 W/m 12,6 km/h (3 Bft)
19.06.2014 09:06 14,3 C 14,4 C 88 % 1020,9 hPa 0,0 l/m 0 min 0 min 0,0 UV-I 221 W/m 10,5 km/h (2 Bft)
19.06.2014 09:08 14,4 C 14,4 C 88 % 1020,9 hPa 0,0 l/m 0 min 0 min 0,0 UV-I 229 W/m 12,6 km/h (3 Bft)
19.06.2014 09:10 14,6 C 15,0 C 88 % 1020,9 hPa 0,0 l/m 0 min 0 min 0,0 UV-I 230 W/m 2,1 km/h (1 Bft)
19.06.2014 09:12 14,8 C 15,0 C 89 % 1020,9 hPa 0,0 l/m 0 min 0 min 0,0 UV-I 230 W/m 8,4 km/h (2 Bft)
19.06.2014 09:14 14,8 C 15,0 C 88 % 1020,9 hPa 0,0 l/m 0 min 0 min 0,0 UV-I 227 W/m 8,4 km/h (2 Bft)
19.06.2014 09:16 14,9 C 15,0 C 88 % 1020,9 hPa 0,0 l/m 0 min 0 min 0,0 UV-I 222 W/m 0,0 km/h (0 Bft)
19.06.2014 09:18 15,0 C 15,0 C 88 % 1020,8 hPa 0,0 l/m 0 min 0 min 0,0 UV-I 213 W/m 6,3 km/h (2 Bft)
19.06.2014 09:20 15,1 C 15,0 C 87 % 1020,8 hPa 0,0 l/m 0 min 0 min 0,0 UV-I 200 W/m 0,0 km/h (0 Bft)
19.06.2014 09:22 15,1 C 15,0 C 87 % 1020,8 hPa 0,0 l/m 0 min 0 min 0,0 UV-I 197 W/m 10,5 km/h (2 Bft)
19.06.2014 09:24 15,0 C 15,0 C 86 % 1020,9 hPa 0,0 l/m 0 min 0 min 0,0 UV-I 198 W/m 10,5 km/h (2 Bft)
19.06.2014 09:26 14,9 C 15,0 C 85 % 1020,8 hPa 0,0 l/m 0 min 0 min 0,0 UV-I 205 W/m 10,5 km/h (2 Bft)
19.06.2014 09:28 15,0 C 15,0 C 86 % 1020,8 hPa 0,0 l/m 0 min 0 min 0,0 UV-I 208 W/m 14,6 km/h (3 Bft)
19.06.2014 09:30 15,1 C 15,0 C 86 % 1020,8 hPa 0,0 l/m 0 min 0 min 0,0 UV-I 208 W/m 6,3 km/h (2 Bft)
19.06.2014 09:32 15,1 C 15,0 C 85 % 1020,7 hPa 0,0 l/m 0 min 0 min 0,0 UV-I 222 W/m 12,6 km/h (3 Bft)
19.06.2014 09:34 15,1 C 15,0 C 85 % 1020,8 hPa 0,0 l/m 0 min 0 min 0,0 UV-I 224 W/m 4,2 km/h (1 Bft)
19.06.2014 09:36 15,1 C 15,6 C 85 % 1020,8 hPa 0,0 l/m 0 min 0 min 0,0 UV-I 224 W/m 10,5 km/h (2 Bft)
19.06.2014 09:38 15,2 C 15,0 C 84 % 1020,7 hPa 0,0 l/m 0 min 0 min 0,0 UV-I 227 W/m 12,6 km/h (3 Bft)
19.06.2014 09:40 15,2 C 15,0 C 83 % 1020,7 hPa 0,0 l/m 0 min 0 min 0,0 UV-I 216 W/m 8,4 km/h (2 Bft)
19.06.2014 09:42 15,3 C 15,6 C 83 % 1020,8 hPa 0,0 l/m 0 min 0 min 0,0 UV-I 218 W/m 10,5 km/h (2 Bft)
19.06.2014 09:44 15,2 C 15,0 C 82 % 1020,8 hPa 0,0 l/m 0 min 0 min 0,0 UV-I 218 W/m 14,6 km/h (3 Bft)
19.06.2014 09:46 15,2 C 15,0 C 82 % 1020,7 hPa 0,0 l/m 0 min 0 min 0,0 UV-I 213 W/m 10,5 km/h (2 Bft)
19.06.2014 09:48 15,2 C 15,0 C 82 % 1020,7 hPa 0,0 l/m 0 min 0 min 0,0 UV-I 224 W/m 8,4 km/h (2 Bft)
19.06.2014 09:50 15,3 C 15,6 C 82 % 1020,7 hPa 0,0 l/m 0 min 0 min 0,0 UV-I 246 W/m 8,4 km/h (2 Bft)
19.06.2014 09:52 15,4 C 15,6 C 82 % 1020,7 hPa 0,0 l/m 0 min 0 min 0,0 UV-I 237 W/m 8,4 km/h (2 Bft)
19.06.2014 09:54 15,4 C 15,6 C 81 % 1020,7 hPa 0,0 l/m 0 min 0 min 0,0 UV-I 229 W/m 10,5 km/h (2 Bft)
19.06.2014 09:56 15,3 C 15,0 C 80 % 1020,7 hPa 0,0 l/m 0 min 0 min 0,0 UV-I 230 W/m 16,7 km/h (3 Bft)
19.06.2014 09:58 15,4 C 15,6 C 81 % 1020,7 hPa 0,0 l/m 0 min 0 min 0,5 UV-I 246 W/m 10,5 km/h (2 Bft)
19.06.2014 10:00 15,6 C 15,6 C 80 % 1020,6 hPa 0,0 l/m 0 min 0 min 0,5 UV-I 264 W/m 12,6 km/h (3 Bft)
19.06.2014 10:02 15,5 C 15,6 C 78 % 1020,6 hPa 0,0 l/m 0 min 0 min 0,5 UV-I 279 W/m 14,6 km/h (3 Bft)
19.06.2014 10:04 15,5 C 15,6 C 77 % 1020,6 hPa 0,0 l/m 0 min 0 min 0,6 UV-I 301 W/m 14,6 km/h (3 Bft)
19.06.2014 10:06 15,7 C 16,1 C 79 % 1020,6 hPa 0,0 l/m 0 min 0 min 0,6 UV-I 301 W/m 10,5 km/h (2 Bft)
19.06.2014 10:08 15,7 C 15,6 C 77 % 1020,6 hPa 0,0 l/m 0 min 0 min 0,5 UV-I 283 W/m 12,6 km/h (3 Bft)
19.06.2014 10:10 15,7 C 16,1 C 77 % 1020,6 hPa 0,0 l/m 0 min 0 min 0,6 UV-I 283 W/m 8,4 km/h (2 Bft)
19.06.2014 10:12 15,7 C 15,6 C 77 % 1020,6 hPa 0,0 l/m 0 min 0 min 0,5 UV-I 267 W/m 12,6 km/h (3 Bft)
19.06.2014 10:14 15,6 C 15,6 C 77 % 1020,6 hPa 0,0 l/m 0 min 0 min 0,5 UV-I 256 W/m 14,6 km/h (3 Bft)
19.06.2014 10:16 15,6 C 15,6 C 78 % 1020,6 hPa 0,0 l/m 0 min 0 min 0,5 UV-I 245 W/m 12,6 km/h (3 Bft)
19.06.2014 10:18 15,6 C 15,6 C 77 % 1020,5 hPa 0,0 l/m 0 min 0 min 0,0 UV-I 232 W/m 12,6 km/h (3 Bft)
19.06.2014 10:20 15,5 C 15,6 C 77 % 1020,5 hPa 0,0 l/m 0 min 0 min 0,0 UV-I 224 W/m 12,6 km/h (3 Bft)
19.06.2014 10:22 15,4 C 15,6 C 76 % 1020,5 hPa 0,0 l/m 0 min 0 min 0,0 UV-I 238 W/m 14,6 km/h (3 Bft)
19.06.2014 10:24 15,5 C 15,6 C 76 % 1020,5 hPa 0,0 l/m 0 min 0 min 0,0 UV-I 238 W/m 4,2 km/h (1 Bft)
19.06.2014 10:26 15,7 C 15,6 C 77 % 1020,5 hPa 0,0 l/m 0 min 0 min 0,0 UV-I 213 W/m 0,0 km/h (0 Bft)
19.06.2014 10:28 15,8 C 15,6 C 78 % 1020,5 hPa 0,0 l/m 0 min 0 min 0,0 UV-I 208 W/m 12,6 km/h (3 Bft)
19.06.2014 10:30 15,8 C 15,6 C 77 % 1020,5 hPa 0,0 l/m 0 min 0 min 0,0 UV-I 208 W/m 14,6 km/h (3 Bft)
19.06.2014 10:32 15,7 C 15,6 C 77 % 1020,4 hPa 0,0 l/m 0 min 0 min 0,0 UV-I 229 W/m 10,5 km/h (2 Bft)
19.06.2014 10:34 15,7 C 15,6 C 76 % 1020,4 hPa 0,0 l/m 0 min 0 min 0,5 UV-I 238 W/m 10,5 km/h (2 Bft)
19.06.2014 10:36 15,7 C 16,1 C 78 % 1020,5 hPa 0,0 l/m 0 min 0 min 0,5 UV-I 248 W/m 10,5 km/h (2 Bft)
19.06.2014 10:38 15,7 C 16,1 C 77 % 1020,5 hPa 0,0 l/m 0 min 0 min 0,7 UV-I 273 W/m 14,6 km/h (3 Bft)
19.06.2014 10:40 15,7 C 16,1 C 77 % 1020,5 hPa 0,0 l/m 0 min 0 min 0,8 UV-I 293 W/m 10,5 km/h (2 Bft)
19.06.2014 10:42 15,7 C 16,1 C 77 % 1020,5 hPa 0,0 l/m 0 min 0 min 0,8 UV-I 304 W/m 14,6 km/h (3 Bft)
19.06.2014 10:44 15,7 C 16,1 C 77 % 1020,5 hPa 0,0 l/m 0 min 0 min 0,9 UV-I 307 W/m 14,6 km/h (3 Bft)
19.06.2014 10:46 15,8 C 16,1 C 79 % 1020,5 hPa 0,0 l/m 0 min 0 min 0,9 UV-I 307 W/m 10,5 km/h (2 Bft)
19.06.2014 10:48 16,1 C 16,7 C 78 % 1020,5 hPa 0,0 l/m 0 min 0 min 0,9 UV-I 307 W/m 14,6 km/h (3 Bft)
19.06.2014 10:50 16,2 C 16,7 C 77 % 1020,5 hPa 0,0 l/m 0 min 0 min 0,9 UV-I 297 W/m 14,6 km/h (3 Bft)
19.06.2014 10:52 16,3 C 16,7 C 76 % 1020,4 hPa 0,0 l/m 0 min 0 min 0,8 UV-I 279 W/m 12,6 km/h (3 Bft)
19.06.2014 10:54 16,3 C 16,7 C 77 % 1020,4 hPa 0,0 l/m 0 min 0 min 0,6 UV-I 246 W/m 12,6 km/h (3 Bft)
19.06.2014 10:56 16,2 C 16,1 C 75 % 1020,4 hPa 0,0 l/m 0 min 0 min 0,6 UV-I 243 W/m 14,6 km/h (3 Bft)
19.06.2014 10:58 16,2 C 16,1 C 76 % 1020,4 hPa 0,0 l/m 0 min 0 min 0,7 UV-I 254 W/m 8,4 km/h (2 Bft)
19.06.2014 11:00 16,2 C 16,7 C 76 % 1020,4 hPa 0,0 l/m 0 min 0 min 0,8 UV-I 293 W/m 10,5 km/h (2 Bft)
19.06.2014 11:02 16,3 C 16,7 C 76 % 1020,4 hPa 0,0 l/m 0 min 0 min 1,1 UV-I 325 W/m 12,6 km/h (3 Bft)
19.06.2014 11:04 16,3 C 16,7 C 76 % 1020,3 hPa 0,0 l/m 0 min 0 min 1,2 UV-I 346 W/m 10,5 km/h (2 Bft)
19.06.2014 11:06 16,3 C 16,7 C 75 % 1020,4 hPa 0,0 l/m 0 min 0 min 1,3 UV-I 376 W/m 16,7 km/h (3 Bft)
19.06.2014 11:08 16,2 C 16,7 C 74 % 1020,4 hPa 0,0 l/m 0 min 0 min 1,3 UV-I 371 W/m 12,6 km/h (3 Bft)
19.06.2014 11:10 16,2 C 16,7 C 76 % 1020,3 hPa 0,0 l/m 0 min 0 min 1,2 UV-I 360 W/m 12,6 km/h (3 Bft)
19.06.2014 11:12 16,3 C 16,7 C 75 % 1020,3 hPa 0,0 l/m 0 min 0 min 1,2 UV-I 355 W/m 10,5 km/h (2 Bft)
19.06.2014 11:14 16,4 C 16,7 C 76 % 1020,3 hPa 0,0 l/m 0 min 0 min 1,0 UV-I 321 W/m 16,7 km/h (3 Bft)
19.06.2014 11:16 16,4 C 16,7 C 75 % 1020,3 hPa 0,0 l/m 0 min 0 min 0,9 UV-I 299 W/m 16,7 km/h (3 Bft)
19.06.2014 11:18 16,4 C 16,7 C 74 % 1020,3 hPa 0,0 l/m 0 min 0 min 0,9 UV-I 293 W/m 16,7 km/h (3 Bft)
19.06.2014 11:20 16,3 C 16,7 C 74 % 1020,3 hPa 0,0 l/m 0 min 0 min 0,8 UV-I 283 W/m 14,6 km/h (3 Bft)
19.06.2014 11:22 16,2 C 16,7 C 74 % 1020,3 hPa 0,0 l/m 0 min 0 min 0,8 UV-I 273 W/m 14,6 km/h (3 Bft)
19.06.2014 11:24 16,3 C 16,7 C 75 % 1020,3 hPa 0,0 l/m 0 min 0 min 0,9 UV-I 312 W/m 12,6 km/h (3 Bft)
19.06.2014 11:26 16,3 C 16,7 C 75 % 1020,3 hPa 0,0 l/m 0 min 0 min 1,1 UV-I 330 W/m 18,8 km/h (3 Bft)
19.06.2014 11:28 16,4 C 16,7 C 75 % 1020,3 hPa 0,0 l/m 0 min 0 min 1,3 UV-I 354 W/m 16,7 km/h (3 Bft)
19.06.2014 11:30 16,4 C 17,2 C 75 % 1020,3 hPa 0,0 l/m 0 min 0 min 1,3 UV-I 352 W/m 16,7 km/h (3 Bft)
19.06.2014 11:32 16,2 C 16,7 C 74 % 1020,3 hPa 0,0 l/m 0 min 0 min 1,1 UV-I 281 W/m 18,8 km/h (3 Bft)
19.06.2014 11:34 16,2 C 16,7 C 75 % 1020,2 hPa 0,0 l/m 0 min 0 min 1,0 UV-I 253 W/m 14,6 km/h (3 Bft)
19.06.2014 11:36 16,2 C 16,7 C 75 % 1020,3 hPa 0,0 l/m 0 min 0 min 0,8 UV-I 214 W/m 14,6 km/h (3 Bft)
19.06.2014 11:38 16,3 C 16,1 C 75 % 1020,3 hPa 0,0 l/m 0 min 0 min 0,5 UV-I 190 W/m 12,6 km/h (3 Bft)
19.06.2014 11:40 16,2 C 16,1 C 75 % 1020,3 hPa 0,0 l/m 0 min 0 min 0,5 UV-I 198 W/m 16,7 km/h (3 Bft)
19.06.2014 11:42 16,2 C 16,1 C 75 % 1020,3 hPa 0,0 l/m 0 min 0 min 0,5 UV-I 210 W/m 16,7 km/h (3 Bft)
19.06.2014 11:44 16,2 C 16,1 C 76 % 1020,3 hPa 0,0 l/m 0 min 0 min 0,6 UV-I 230 W/m 14,6 km/h (3 Bft)
19.06.2014 11:46 16,2 C 16,1 C 75 % 1020,2 hPa 0,0 l/m 0 min 0 min 0,7 UV-I 245 W/m 14,6 km/h (3 Bft)
19.06.2014 11:48 16,2 C 16,1 C 75 % 1020,3 hPa 0,0 l/m 0 min 0 min 0,8 UV-I 259 W/m 10,5 km/h (2 Bft)
19.06.2014 11:50 16,1 C 16,1 C 74 % 1020,2 hPa 0,0 l/m 0 min 0 min 0,8 UV-I 263 W/m 16,7 km/h (3 Bft)
19.06.2014 11:52 16,1 C 16,1 C 74 % 1020,2 hPa 0,0 l/m 0 min 0 min 0,8 UV-I 263 W/m 10,5 km/h (2 Bft)
19.06.2014 11:54 16,0 C 16,1 C 73 % 1020,2 hPa 0,0 l/m 0 min 0 min 0,7 UV-I 248 W/m 12,6 km/h (3 Bft)
19.06.2014 11:56 15,9 C 16,1 C 74 % 1020,3 hPa 0,0 l/m 0 min 0 min 0,6 UV-I 232 W/m 14,6 km/h (3 Bft)
19.06.2014 11:58 15,9 C 16,1 C 75 % 1020,3 hPa 0,0 l/m 0 min 0 min 0,5 UV-I 222 W/m 10,5 km/h (2 Bft)
19.06.2014 12:00 16,1 C 16,1 C 77 % 1020,3 hPa 0,0 l/m 0 min 0 min 0,6 UV-I 229 W/m 12,6 km/h (3 Bft)
19.06.2014 12:02 16,1 C 16,1 C 75 % 1020,3 hPa 0,0 l/m 0 min 0 min 0,7 UV-I 237 W/m 14,6 km/h (3 Bft)
19.06.2014 12:06 16,1 C 16,1 C 76 % 1020,3 hPa 0,0 l/m 0 min 0 min 0,7 UV-I 240 W/m 18,8 km/h (3 Bft)
19.06.2014 12:08 16,2 C 16,1 C 76 % 1020,3 hPa 0,0 l/m 0 min 0 min 0,8 UV-I 243 W/m 10,5 km/h (2 Bft)
19.06.2014 12:10 16,2 C 16,1 C 74 % 1020,2 hPa 0,0 l/m 0 min 0 min 0,8 UV-I 256 W/m 16,7 km/h (3 Bft)
19.06.2014 12:12 16,1 C 16,1 C 74 % 1020,2 hPa 0,0 l/m 0 min 0 min 1,0 UV-I 273 W/m 12,6 km/h (3 Bft)
19.06.2014 12:14 16,1 C 16,1 C 75 % 1020,2 hPa 0,0 l/m 0 min 0 min 1,1 UV-I 285 W/m 16,7 km/h (3 Bft)
19.06.2014 12:16 16,1 C 16,1 C 74 % 1020,2 hPa 0,0 l/m 0 min 0 min 1,2 UV-I 321 W/m 16,7 km/h (3 Bft)
19.06.2014 12:18 16,1 C 16,1 C 75 % 1020,2 hPa 0,0 l/m 0 min 0 min 1,5 UV-I 350 W/m 14,6 km/h (3 Bft)
19.06.2014 12:20 16,2 C 16,7 C 74 % 1020,2 hPa 0,0 l/m 0 min 0 min 1,5 UV-I 362 W/m 8,4 km/h (2 Bft)
19.06.2014 12:22 16,3 C 16,7 C 76 % 1020,2 hPa 0,0 l/m 0 min 0 min 1,6 UV-I 363 W/m 12,6 km/h (3 Bft)
19.06.2014 12:24 16,4 C 16,7 C 74 % 1020,2 hPa 0,0 l/m 0 min 0 min 1,5 UV-I 354 W/m 14,6 km/h (3 Bft)
19.06.2014 12:26 16,5 C 16,7 C 73 % 1020,2 hPa 0,0 l/m 0 min 0 min 1,4 UV-I 347 W/m 14,6 km/h (3 Bft)
19.06.2014 12:28 16,6 C 17,2 C 73 % 1020,2 hPa 0,0 l/m 0 min 0 min 1,4 UV-I 336 W/m 16,7 km/h (3 Bft)
19.06.2014 12:30 16,7 C 17,2 C 72 % 1020,2 hPa 0,0 l/m 0 min 0 min 1,4 UV-I 331 W/m 14,6 km/h (3 Bft)
19.06.2014 12:32 16,8 C 17,2 C 74 % 1020,2 hPa 0,0 l/m 0 min 0 min 1,4 UV-I 325 W/m 14,6 km/h (3 Bft)
19.06.2014 12:34 16,9 C 17,2 C 71 % 1020,2 hPa 0,0 l/m 0 min 0 min 1,4 UV-I 339 W/m 18,8 km/h (3 Bft)
19.06.2014 12:36 16,7 C 17,2 C 70 % 1020,2 hPa 0,0 l/m 0 min 0 min 1,5 UV-I 344 W/m 16,7 km/h (3 Bft)
19.06.2014 12:38 16,7 C 17,2 C 72 % 1020,2 hPa 0,0 l/m 0 min 0 min 1,5 UV-I 358 W/m 20,9 km/h (4 Bft)
19.06.2014 12:40 16,7 C 17,2 C 72 % 1020,2 hPa 0,0 l/m 0 min 0 min 1,6 UV-I 380 W/m 12,6 km/h (3 Bft)
19.06.2014 12:42 16,7 C 17,2 C 72 % 1020,1 hPa 0,0 l/m 0 min 0 min 1,7 UV-I 392 W/m 16,7 km/h (3 Bft)
19.06.2014 12:44 16,7 C 17,2 C 71 % 1020,2 hPa 0,0 l/m 0 min 0 min 1,7 UV-I 386 W/m 18,8 km/h (3 Bft)
19.06.2014 12:46 16,6 C 17,2 C 72 % 1020,1 hPa 0,0 l/m 0 min 0 min 1,6 UV-I 382 W/m 16,7 km/h (3 Bft)
19.06.2014 12:48 16,8 C 17,2 C 73 % 1020,1 hPa 0,0 l/m 0 min 0 min 1,5 UV-I 366 W/m 16,7 km/h (3 Bft)
19.06.2014 12:50 16,9 C 17,2 C 71 % 1020,1 hPa 0,0 l/m 0 min 0 min 1,5 UV-I 347 W/m 14,6 km/h (3 Bft)
19.06.2014 12:52 16,9 C 17,2 C 71 % 1020,1 hPa 0,0 l/m 0 min 0 min 1,5 UV-I 347 W/m 16,7 km/h (3 Bft)
19.06.2014 12:54 16,9 C 17,2 C 72 % 1020,1 hPa 0,0 l/m 0 min 0 min 1,7 UV-I 370 W/m 12,6 km/h (3 Bft)
19.06.2014 12:56 17,0 C 17,8 C 72 % 1020,1 hPa 0,0 l/m 0 min 0 min 1,8 UV-I 380 W/m 8,4 km/h (2 Bft)
19.06.2014 12:58 17,1 C 17,8 C 72 % 1020,1 hPa 0,0 l/m 0 min 0 min 1,9 UV-I 408 W/m 8,4 km/h (2 Bft)
19.06.2014 13:00 17,2 C 17,8 C 71 % 1020,0 hPa 0,0 l/m 0 min 0 min 2,0 UV-I 432 W/m 12,6 km/h (3 Bft)
19.06.2014 13:02 17,1 C 17,8 C 71 % 1020,0 hPa 0,0 l/m 0 min 0 min 2,2 UV-I 451 W/m 12,6 km/h (3 Bft)
19.06.2014 13:04 17,2 C 18,3 C 72 % 1020,1 hPa 0,0 l/m 2 min 0 min 2,4 UV-I 522 W/m 16,7 km/h (3 Bft)
19.06.2014 13:06 17,3 C 18,3 C 70 % 1020,0 hPa 0,0 l/m 2 min 0 min 2,4 UV-I 515 W/m 12,6 km/h (3 Bft)
19.06.2014 13:08 17,4 C 18,9 C 71 % 1020,0 hPa 0,0 l/m 2 min 0 min 2,5 UV-I 539 W/m 10,5 km/h (2 Bft)
19.06.2014 13:10 17,6 C 18,9 C 70 % 1020,0 hPa 0,0 l/m 2 min 0 min 2,4 UV-I 491 W/m 14,6 km/h (3 Bft)
19.06.2014 13:12 17,4 C 18,3 C 68 % 1020,0 hPa 0,0 l/m 2 min 0 min 2,7 UV-I 518 W/m 12,6 km/h (3 Bft)
19.06.2014 13:14 17,5 C 18,9 C 72 % 1020,0 hPa 0,0 l/m 2 min 0 min 3,1 UV-I 714 W/m 12,6 km/h (3 Bft)
19.06.2014 13:16 17,6 C 18,9 C 70 % 1020,0 hPa 0,0 l/m 2 min 0 min 2,6 UV-I 501 W/m 20,9 km/h (4 Bft)
19.06.2014 13:18 17,6 C 18,9 C 71 % 1020,0 hPa 0,0 l/m 2 min 0 min 3,2 UV-I 539 W/m 16,7 km/h (3 Bft)
19.06.2014 13:20 17,9 C 19,4 C 72 % 1019,9 hPa 0,0 l/m 2 min 0 min 3,7 UV-I 629 W/m 12,6 km/h (3 Bft)
19.06.2014 13:22 18,2 C 20,0 C 70 % 1019,9 hPa 0,0 l/m 2 min 0 min 4,2 UV-I 691 W/m 12,6 km/h (3 Bft)
19.06.2014 13:24 18,2 C 20,0 C 68 % 1019,9 hPa 0,0 l/m 2 min 0 min 5,6 UV-I 691 W/m 12,6 km/h (3 Bft)
19.06.2014 13:26 18,5 C 20,6 C 69 % 1019,9 hPa 0,0 l/m 2 min 0 min 3,9 UV-I 691 W/m 12,6 km/h (3 Bft)
19.06.2014 13:28 18,4 C 20,6 C 67 % 1019,9 hPa 0,0 l/m 2 min 0 min 2,7 UV-I 480 W/m 14,6 km/h (3 Bft)
19.06.2014 13:30 18,1 C 20,0 C 68 % 1019,9 hPa 0,0 l/m 0 min 0 min 2,7 UV-I 463 W/m 18,8 km/h (3 Bft)
19.06.2014 13:32 18,1 C 20,0 C 70 % 1019,9 hPa 0,0 l/m 2 min 0 min 4,5 UV-I 584 W/m 12,6 km/h (3 Bft)
19.06.2014 13:34 18,4 C 20,6 C 69 % 1019,9 hPa 0,0 l/m 2 min 0 min 2,8 UV-I 1112 W/m 10,5 km/h (2 Bft)
19.06.2014 13:36 18,6 C 20,6 C 67 % 1019,9 hPa 0,0 l/m 0 min 0 min 2,1 UV-I 467 W/m 12,6 km/h (3 Bft)
19.06.2014 13:38 18,3 C 19,4 C 67 % 1020,0 hPa 0,0 l/m 0 min 0 min 1,8 UV-I 366 W/m 14,6 km/h (3 Bft)
19.06.2014 13:40 18,1 C 19,4 C 67 % 1020,0 hPa 0,0 l/m 0 min 0 min 1,8 UV-I 384 W/m 20,9 km/h (4 Bft)
19.06.2014 13:42 18,1 C 18,9 C 69 % 1019,9 hPa 0,0 l/m 0 min 0 min 1,8 UV-I 400 W/m 14,6 km/h (3 Bft)
19.06.2014 13:44 17,9 C 18,9 C 68 % 1019,9 hPa 0,0 l/m 0 min 0 min 1,8 UV-I 406 W/m 14,6 km/h (3 Bft)
19.06.2014 13:46 17,8 C 18,9 C 70 % 1019,9 hPa 0,0 l/m 0 min 0 min 1,7 UV-I 386 W/m 12,6 km/h (3 Bft)
19.06.2014 13:48 17,8 C 18,9 C 69 % 1019,9 hPa 0,0 l/m 0 min 0 min 1,5 UV-I 339 W/m 12,6 km/h (3 Bft)
19.06.2014 13:50 17,8 C 18,3 C 69 % 1019,9 hPa 0,0 l/m 0 min 0 min 1,6 UV-I 355 W/m 16,7 km/h (3 Bft)
19.06.2014 13:52 17,7 C 18,3 C 68 % 1019,9 hPa 0,0 l/m 0 min 0 min 2,0 UV-I 424 W/m 14,6 km/h (3 Bft)
19.06.2014 13:54 17,7 C 18,3 C 68 % 1019,9 hPa 0,0 l/m 0 min 0 min 2,0 UV-I 429 W/m 12,6 km/h (3 Bft)
19.06.2014 13:56 17,7 C 18,9 C 70 % 1019,9 hPa 0,0 l/m 0 min 0 min 2,1 UV-I 435 W/m 16,7 km/h (3 Bft)
19.06.2014 13:58 17,7 C 18,9 C 70 % 1019,8 hPa 0,0 l/m 0 min 0 min 2,0 UV-I 422 W/m 10,5 km/h (2 Bft)
19.06.2014 14:00 17,8 C 18,9 C 70 % 1019,8 hPa 0,0 l/m 0 min 0 min 2,0 UV-I 427 W/m 16,7 km/h (3 Bft)
19.06.2014 14:02 17,9 C 18,9 C 70 % 1019,8 hPa 0,0 l/m 0 min 0 min 2,0 UV-I 430 W/m 12,6 km/h (3 Bft)
19.06.2014 14:04 17,9 C 18,9 C 69 % 1019,8 hPa 0,0 l/m 0 min 0 min 2,1 UV-I 443 W/m 18,8 km/h (3 Bft)
19.06.2014 14:06 17,9 C 18,9 C 69 % 1019,9 hPa 0,0 l/m 0 min 0 min 2,0 UV-I 422 W/m 12,6 km/h (3 Bft)
19.06.2014 14:08 17,9 C 18,3 C 68 % 1019,8 hPa 0,0 l/m 0 min 0 min 2,1 UV-I 430 W/m 16,7 km/h (3 Bft)
19.06.2014 14:10 18,0 C 18,9 C 70 % 1019,8 hPa 0,0 l/m 0 min 0 min 2,1 UV-I 457 W/m 12,6 km/h (3 Bft)
19.06.2014 14:12 18,0 C 18,9 C 69 % 1019,8 hPa 0,0 l/m 0 min 0 min 2,1 UV-I 457 W/m 14,6 km/h (3 Bft)
19.06.2014 14:14 18,1 C 18,9 C 69 % 1019,8 hPa 0,0 l/m 2 min 0 min 2,1 UV-I 477 W/m 14,6 km/h (3 Bft)
19.06.2014 14:16 18,0 C 18,9 C 69 % 1019,8 hPa 0,0 l/m 2 min 0 min 2,2 UV-I 477 W/m 12,6 km/h (3 Bft)
19.06.2014 14:18 18,1 C 19,4 C 70 % 1019,8 hPa 0,0 l/m 0 min 0 min 1,9 UV-I 414 W/m 8,4 km/h (2 Bft)
19.06.2014 14:20 18,2 C 19,4 C 71 % 1019,7 hPa 0,0 l/m 0 min 0 min 1,7 UV-I 350 W/m 14,6 km/h (3 Bft)
19.06.2014 14:22 18,1 C 18,9 C 68 % 1019,7 hPa 0,0 l/m 0 min 0 min 1,5 UV-I 344 W/m 16,7 km/h (3 Bft)
19.06.2014 14:24 17,9 C 18,3 C 68 % 1019,7 hPa 0,0 l/m 0 min 0 min 1,4 UV-I 331 W/m 18,8 km/h (3 Bft)
19.06.2014 14:26 17,9 C 18,3 C 71 % 1019,7 hPa 0,0 l/m 0 min 0 min 1,5 UV-I 334 W/m 12,6 km/h (3 Bft)
19.06.2014 14:28 17,9 C 18,3 C 70 % 1019,7 hPa 0,0 l/m 0 min 0 min 1,8 UV-I 394 W/m 16,7 km/h (3 Bft)
19.06.2014 14:30 17,8 C 18,9 C 69 % 1019,8 hPa 0,0 l/m 2 min 0 min 2,2 UV-I 520 W/m 16,7 km/h (3 Bft)
19.06.2014 14:32 17,8 C 18,9 C 70 % 1019,7 hPa 0,0 l/m 0 min 0 min 1,7 UV-I 406 W/m 16,7 km/h (3 Bft)
19.06.2014 14:34 17,8 C 18,9 C 69 % 1019,7 hPa 0,0 l/m 0 min 0 min 1,4 UV-I 346 W/m 12,6 km/h (3 Bft)
19.06.2014 14:36 17,8 C 18,3 C 69 % 1019,6 hPa 0,0 l/m 0 min 0 min 1,3 UV-I 320 W/m 16,7 km/h (3 Bft)
19.06.2014 14:38 17,8 C 18,3 C 70 % 1019,6 hPa 0,0 l/m 0 min 0 min 1,3 UV-I 315 W/m 16,7 km/h (3 Bft)
19.06.2014 14:40 17,7 C 18,3 C 70 % 1019,7 hPa 0,0 l/m 0 min 0 min 1,2 UV-I 315 W/m 12,6 km/h (3 Bft)
19.06.2014 14:42 17,7 C 18,3 C 71 % 1019,7 hPa 0,0 l/m 0 min 0 min 1,1 UV-I 289 W/m 10,5 km/h (2 Bft)
19.06.2014 14:44 17,8 C 18,3 C 72 % 1019,7 hPa 0,0 l/m 0 min 0 min 0,9 UV-I 254 W/m 2,1 km/h (1 Bft)
19.06.2014 14:46 17,9 C 18,3 C 71 % 1019,7 hPa 0,0 l/m 0 min 0 min 0,9 UV-I 240 W/m 12,6 km/h (3 Bft)
19.06.2014 14:48 17,7 C 17,8 C 70 % 1019,7 hPa 0,0 l/m 0 min 0 min 0,7 UV-I 218 W/m 20,9 km/h (4 Bft)
19.06.2014 14:50 17,6 C 17,2 C 70 % 1019,7 hPa 0,0 l/m 0 min 0 min 0,6 UV-I 194 W/m 14,6 km/h (3 Bft)
19.06.2014 14:52 17,4 C 17,2 C 71 % 1019,7 hPa 0,0 l/m 0 min 0 min 0,6 UV-I 186 W/m 14,6 km/h (3 Bft)
19.06.2014 14:54 17,4 C 17,2 C 72 % 1019,7 hPa 0,0 l/m 0 min 0 min 0,7 UV-I 208 W/m 12,6 km/h (3 Bft)
19.06.2014 14:56 17,3 C 17,2 C 72 % 1019,8 hPa 0,0 l/m 0 min 0 min 0,9 UV-I 232 W/m 16,7 km/h (3 Bft)
19.06.2014 14:58 17,3 C 17,2 C 72 % 1019,7 hPa 0,0 l/m 0 min 0 min 1,0 UV-I 246 W/m 12,6 km/h (3 Bft)
19.06.2014 15:00 17,3 C 17,2 C 71 % 1019,8 hPa 0,0 l/m 0 min 0 min 1,0 UV-I 273 W/m 16,7 km/h (3 Bft)
19.06.2014 15:02 17,3 C 17,2 C 72 % 1019,7 hPa 0,0 l/m 0 min 0 min 1,0 UV-I 285 W/m 14,6 km/h (3 Bft)
19.06.2014 15:04 17,4 C 17,2 C 74 % 1019,7 hPa 0,0 l/m 0 min 0 min 0,9 UV-I 273 W/m 8,4 km/h (2 Bft)
19.06.2014 15:06 17,4 C 17,2 C 71 % 1019,7 hPa 0,0 l/m 0 min 0 min 0,7 UV-I 218 W/m 12,6 km/h (3 Bft)
19.06.2014 15:08 17,4 C 17,2 C 72 % 1019,7 hPa 0,0 l/m 0 min 0 min 0,5 UV-I 192 W/m 12,6 km/h (3 Bft)
19.06.2014 15:10 17,3 C 17,2 C 72 % 1019,7 hPa 0,0 l/m 0 min 0 min 0,0 UV-I 178 W/m 8,4 km/h (2 Bft)
19.06.2014 15:12 17,3 C 16,7 C 72 % 1019,7 hPa 0,0 l/m 0 min 0 min 0,0 UV-I 154 W/m 16,7 km/h (3 Bft)
19.06.2014 15:14 17,2 C 16,7 C 73 % 1019,7 hPa 0,0 l/m 0 min 0 min 0,0 UV-I 125 W/m 16,7 km/h (3 Bft)
19.06.2014 15:16 17,2 C 16,7 C 73 % 1019,7 hPa 0,0 l/m 0 min 0 min 0,0 UV-I 105 W/m 14,6 km/h (3 Bft)
19.06.2014 15:18 17,1 C 16,7 C 73 % 1019,7 hPa 0,0 l/m 0 min 0 min 0,0 UV-I 99 W/m 14,6 km/h (3 Bft)
19.06.2014 15:20 17,1 C 16,7 C 73 % 1019,7 hPa 0,0 l/m 0 min 0 min 0,0 UV-I 105 W/m 18,8 km/h (3 Bft)
19.06.2014 15:22 17,1 C 16,1 C 73 % 1019,6 hPa 0,0 l/m 0 min 0 min 0,0 UV-I 121 W/m 16,7 km/h (3 Bft)
19.06.2014 15:24 17,0 C 16,1 C 74 % 1019,7 hPa 0,0 l/m 0 min 0 min 0,0 UV-I 146 W/m 18,8 km/h (3 Bft)
19.06.2014 15:26 17,0 C 16,7 C 73 % 1019,6 hPa 0,0 l/m 0 min 0 min 0,0 UV-I 174 W/m 14,6 km/h (3 Bft)
19.06.2014 15:28 17,1 C 16,7 C 75 % 1019,6 hPa 0,0 l/m 0 min 0 min 0,5 UV-I 190 W/m 12,6 km/h (3 Bft)
19.06.2014 15:30 17,1 C 16,7 C 74 % 1019,6 hPa 0,0 l/m 0 min 0 min 0,5 UV-I 202 W/m 16,7 km/h (3 Bft)
19.06.2014 15:32 17,1 C 16,7 C 74 % 1019,6 hPa 0,0 l/m 0 min 0 min 0,5 UV-I 197 W/m 12,6 km/h (3 Bft)
19.06.2014 15:34 17,1 C 16,7 C 74 % 1019,6 hPa 0,0 l/m 0 min 0 min 0,5 UV-I 197 W/m 16,7 km/h (3 Bft)
19.06.2014 15:36 17,2 C 16,7 C 75 % 1019,6 hPa 0,0 l/m 0 min 0 min 0,5 UV-I 216 W/m 14,6 km/h (3 Bft)
19.06.2014 15:38 17,2 C 17,2 C 74 % 1019,6 hPa 0,0 l/m 0 min 0 min 0,5 UV-I 221 W/m 12,6 km/h (3 Bft)
19.06.2014 15:40 17,2 C 17,2 C 74 % 1019,6 hPa 0,0 l/m 0 min 0 min 0,0 UV-I 205 W/m 20,9 km/h (4 Bft)
19.06.2014 15:42 17,1 C 16,7 C 74 % 1019,6 hPa 0,0 l/m 0 min 0 min 0,0 UV-I 202 W/m 12,6 km/h (3 Bft)
19.06.2014 15:44 17,1 C 16,7 C 75 % 1019,6 hPa 0,0 l/m 0 min 0 min 0,5 UV-I 210 W/m 20,9 km/h (4 Bft)
19.06.2014 15:46 17,1 C 16,7 C 75 % 1019,5 hPa 0,0 l/m 0 min 0 min 0,5 UV-I 214 W/m 14,6 km/h (3 Bft)
19.06.2014 15:48 17,1 C 16,7 C 75 % 1019,5 hPa 0,0 l/m 0 min 0 min 0,6 UV-I 218 W/m 18,8 km/h (3 Bft)
19.06.2014 15:50 17,1 C 16,7 C 76 % 1019,5 hPa 0,0 l/m 0 min 0 min 0,7 UV-I 235 W/m 14,6 km/h (3 Bft)
19.06.2014 15:52 17,0 C 16,7 C 76 % 1019,5 hPa 0,0 l/m 0 min 0 min 0,9 UV-I 269 W/m 16,7 km/h (3 Bft)
19.06.2014 15:54 17,0 C 17,2 C 76 % 1019,5 hPa 0,0 l/m 0 min 0 min 1,3 UV-I 338 W/m 12,6 km/h (3 Bft)
19.06.2014 15:56 17,1 C 17,2 C 76 % 1019,4 hPa 0,0 l/m 2 min 0 min 1,6 UV-I 440 W/m 20,9 km/h (4 Bft)
19.06.2014 15:58 17,1 C 17,8 C 76 % 1019,4 hPa 0,0 l/m 2 min 0 min 1,7 UV-I 455 W/m 20,9 km/h (4 Bft)
19.06.2014 16:00 17,1 C 17,8 C 76 % 1019,4 hPa 0,0 l/m 0 min 0 min 1,2 UV-I 338 W/m 16,7 km/h (3 Bft)
19.06.2014 16:02 17,2 C 17,8 C 76 % 1019,4 hPa 0,0 l/m 0 min 0 min 1,1 UV-I 321 W/m 20,9 km/h (4 Bft)
19.06.2014 16:04 17,2 C 17,8 C 76 % 1019,4 hPa 0,0 l/m 0 min 0 min 1,1 UV-I 334 W/m 20,9 km/h (4 Bft)
19.06.2014 16:06 17,4 C 17,8 C 76 % 1019,4 hPa 0,0 l/m 0 min 0 min 1,2 UV-I 352 W/m 16,7 km/h (3 Bft)
19.06.2014 16:08 17,2 C 17,8 C 75 % 1019,3 hPa 0,0 l/m 0 min 0 min 1,2 UV-I 368 W/m 12,6 km/h (3 Bft)
19.06.2014 16:10 17,2 C 17,8 C 75 % 1019,4 hPa 0,0 l/m 0 min 0 min 1,1 UV-I 344 W/m 20,9 km/h (4 Bft)
19.06.2014 16:12 17,3 C 17,8 C 75 % 1019,4 hPa 0,0 l/m 0 min 0 min 0,9 UV-I 271 W/m 14,6 km/h (3 Bft)
19.06.2014 16:14 17,2 C 17,2 C 75 % 1019,4 hPa 0,0 l/m 0 min 0 min 0,8 UV-I 269 W/m 25,1 km/h (4 Bft)
19.06.2014 16:16 17,2 C 17,2 C 75 % 1019,4 hPa 0,0 l/m 0 min 0 min 0,9 UV-I 293 W/m 20,9 km/h (4 Bft)
19.06.2014 16:18 17,2 C 17,2 C 75 % 1019,4 hPa 0,0 l/m 0 min 0 min 0,0 UV-I 194 W/m 23,0 km/h (4 Bft)
19.06.2014 16:20 17,1 C 16,7 C 75 % 1019,4 hPa 0,0 l/m 0 min 0 min 0,0 UV-I 152 W/m 14,6 km/h (3 Bft)
19.06.2014 16:22 17,1 C 16,7 C 76 % 1019,4 hPa 0,0 l/m 0 min 0 min 0,0 UV-I 170 W/m 18,8 km/h (3 Bft)
19.06.2014 16:24 16,9 C 16,7 C 76 % 1019,3 hPa 0,0 l/m 0 min 0 min 0,0 UV-I 176 W/m 20,9 km/h (4 Bft)
19.06.2014 16:26 16,9 C 16,7 C 76 % 1019,4 hPa 0,0 l/m 0 min 0 min 0,0 UV-I 131 W/m 18,8 km/h (3 Bft)
19.06.2014 16:28 16,8 C 16,1 C 76 % 1019,4 hPa 0,0 l/m 0 min 0 min 0,0 UV-I 109 W/m 18,8 km/h (3 Bft)
19.06.2014 16:30 16,8 C 16,1 C 77 % 1019,4 hPa 0,0 l/m 0 min 0 min 0,0 UV-I 99 W/m 18,8 km/h (3 Bft)
19.06.2014 16:32 16,8 C 16,1 C 77 % 1019,4 hPa 0,0 l/m 0 min 0 min 0,0 UV-I 97 W/m 14,6 km/h (3 Bft)
19.06.2014 16:34 16,7 C 16,1 C 77 % 1019,4 hPa 0,0 l/m 0 min 0 min 0,0 UV-I 101 W/m 16,7 km/h (3 Bft)
19.06.2014 16:36 16,7 C 16,1 C 77 % 1019,4 hPa 0,0 l/m 0 min 0 min 0,0 UV-I 99 W/m 14,6 km/h (3 Bft)
19.06.2014 16:38 16,7 C 16,1 C 78 % 1019,4 hPa 0,0 l/m 0 min 0 min 0,0 UV-I 89 W/m 12,6 km/h (3 Bft)
19.06.2014 16:40 16,6 C 16,1 C 78 % 1019,4 hPa 0,0 l/m 0 min 0 min 0,0 UV-I 80 W/m 20,9 km/h (4 Bft)
19.06.2014 16:42 16,6 C 16,1 C 77 % 1019,3 hPa 0,0 l/m 0 min 0 min 0,0 UV-I 83 W/m 18,8 km/h (3 Bft)
19.06.2014 16:44 16,6 C 16,1 C 78 % 1019,4 hPa 0,0 l/m 0 min 0 min 0,0 UV-I 79 W/m 8,4 km/h (2 Bft)
19.06.2014 16:46 16,6 C 16,1 C 78 % 1019,4 hPa 0,0 l/m 0 min 0 min 0,0 UV-I 71 W/m 16,7 km/h (3 Bft)
19.06.2014 16:48 16,5 C 15,6 C 77 % 1019,3 hPa 0,0 l/m 0 min 0 min 0,0 UV-I 62 W/m 16,7 km/h (3 Bft)
19.06.2014 16:50 16,5 C 15,6 C 78 % 1019,3 hPa 0,0 l/m 0 min 0 min 0,0 UV-I 54 W/m 16,7 km/h (3 Bft)
19.06.2014 16:52 16,4 C 15,6 C 77 % 1019,2 hPa 0,0 l/m 0 min 0 min 0,0 UV-I 67 W/m 16,7 km/h (3 Bft)
19.06.2014 16:54 16,4 C 15,0 C 77 % 1019,2 hPa 0,0 l/m 0 min 2 min 0,0 UV-I 75 W/m 14,6 km/h (3 Bft)
19.06.2014 16:56 16,3 C 13,9 C 80 % 1019,3 hPa 0,2 l/m 0 min 2 min 0,0 UV-I 77 W/m 18,8 km/h (3 Bft)
19.06.2014 16:58 16,1 C 13,3 C 82 % 1019,3 hPa 0,0 l/m 0 min 2 min 0,0 UV-I 93 W/m 16,7 km/h (3 Bft)
19.06.2014 17:00 15,9 C 13,3 C 84 % 1019,3 hPa 0,2 l/m 0 min 2 min 0,0 UV-I 101 W/m 12,6 km/h (3 Bft)
19.06.2014 17:02 15,6 C 13,3 C 85 % 1019,3 hPa 0,0 l/m 0 min 2 min 0,0 UV-I 120 W/m 14,6 km/h (3 Bft)
19.06.2014 17:04 15,5 C 13,3 C 86 % 1019,2 hPa 0,0 l/m 0 min 2 min 0,0 UV-I 158 W/m 12,6 km/h (3 Bft)
19.06.2014 17:06 15,4 C 13,3 C 87 % 1019,3 hPa 0,0 l/m 0 min 2 min 0,0 UV-I 184 W/m 10,5 km/h (2 Bft)
19.06.2014 17:08 15,3 C 13,3 C 87 % 1019,2 hPa 0,0 l/m 0 min 2 min 0,0 UV-I 174 W/m 10,5 km/h (2 Bft)
19.06.2014 17:10 15,4 C 13,9 C 88 % 1019,2 hPa 0,0 l/m 0 min 2 min 0,0 UV-I 144 W/m 14,6 km/h (3 Bft)
19.06.2014 17:12 15,4 C 13,3 C 88 % 1019,2 hPa 0,0 l/m 0 min 2 min 0,0 UV-I 150 W/m 14,6 km/h (3 Bft)
19.06.2014 17:14 15,3 C 13,3 C 88 % 1019,2 hPa 0,0 l/m 0 min 2 min 0,0 UV-I 178 W/m 14,6 km/h (3 Bft)
19.06.2014 17:16 15,3 C 13,9 C 88 % 1019,2 hPa 0,0 l/m 0 min 0 min 0,0 UV-I 243 W/m 14,6 km/h (3 Bft)
19.06.2014 17:18 15,4 C 13,9 C 88 % 1019,1 hPa 0,0 l/m 0 min 0 min 0,0 UV-I 254 W/m 14,6 km/h (3 Bft)
19.06.2014 17:20 15,4 C 13,9 C 88 % 1019,2 hPa 0,0 l/m 0 min 0 min 0,0 UV-I 232 W/m 16,7 km/h (3 Bft)
19.06.2014 17:22 15,6 C 13,9 C 88 % 1019,1 hPa 0,0 l/m 0 min 0 min 0,0 UV-I 214 W/m 12,6 km/h (3 Bft)
19.06.2014 17:24 15,6 C 13,9 C 88 % 1019,1 hPa 0,0 l/m 0 min 0 min 0,0 UV-I 216 W/m 12,6 km/h (3 Bft)
19.06.2014 17:26 15,7 C 13,9 C 88 % 1019,1 hPa 0,0 l/m 0 min 0 min 0,0 UV-I 208 W/m 12,6 km/h (3 Bft)
19.06.2014 17:28 15,8 C 13,9 C 88 % 1019,2 hPa 0,0 l/m 0 min 0 min 0,0 UV-I 162 W/m 10,5 km/h (2 Bft)
19.06.2014 17:30 15,8 C 13,9 C 87 % 1019,2 hPa 0,0 l/m 0 min 0 min 0,0 UV-I 152 W/m 14,6 km/h (3 Bft)
19.06.2014 17:32 15,7 C 13,9 C 87 % 1019,1 hPa 0,0 l/m 0 min 0 min 0,0 UV-I 144 W/m 12,6 km/h (3 Bft)
19.06.2014 17:34 15,7 C 13,9 C 87 % 1019,2 hPa 0,0 l/m 0 min 2 min 0,0 UV-I 123 W/m 8,4 km/h (2 Bft)
19.06.2014 17:36 15,7 C 13,9 C 87 % 1019,1 hPa 0,0 l/m 0 min 2 min 0,0 UV-I 109 W/m 14,6 km/h (3 Bft)
19.06.2014 17:38 15,7 C 13,3 C 86 % 1019,1 hPa 0,0 l/m 0 min 2 min 0,0 UV-I 104 W/m 16,7 km/h (3 Bft)
19.06.2014 17:40 15,7 C 13,9 C 87 % 1019,2 hPa 0,0 l/m 0 min 2 min 0,0 UV-I 104 W/m 10,5 km/h (2 Bft)
19.06.2014 17:42 15,7 C 13,9 C 88 % 1019,1 hPa 0,0 l/m 0 min 2 min 0,0 UV-I 105 W/m 10,5 km/h (2 Bft)
19.06.2014 17:44 15,7 C 13,9 C 88 % 1019,1 hPa 0,0 l/m 0 min 0 min 0,0 UV-I 93 W/m 14,6 km/h (3 Bft)
19.06.2014 17:46 15,6 C 13,3 C 88 % 1019,1 hPa 0,0 l/m 0 min 0 min 0,0 UV-I 95 W/m 16,7 km/h (3 Bft)
19.06.2014 17:48 15,6 C 13,3 C 87 % 1019,0 hPa 0,0 l/m 0 min 0 min 0,0 UV-I 107 W/m 20,9 km/h (4 Bft)
19.06.2014 17:50 15,5 C 13,3 C 86 % 1019,1 hPa 0,0 l/m 0 min 0 min 0,0 UV-I 131 W/m 16,7 km/h (3 Bft)
19.06.2014 17:52 15,5 C 13,3 C 87 % 1019,0 hPa 0,0 l/m 0 min 0 min 0,0 UV-I 125 W/m 16,7 km/h (3 Bft)
19.06.2014 17:54 15,4 C 13,3 C 87 % 1019,1 hPa 0,0 l/m 0 min 2 min 0,0 UV-I 120 W/m 18,8 km/h (3 Bft)
19.06.2014 17:56 15,4 C 13,3 C 87 % 1019,0 hPa 0,0 l/m 0 min 2 min 0,0 UV-I 125 W/m 16,7 km/h (3 Bft)
19.06.2014 17:58 15,5 C 13,3 C 87 % 1019,0 hPa 0,0 l/m 0 min 2 min 0,0 UV-I 121 W/m 12,6 km/h (3 Bft)
19.06.2014 18:00 15,4 C 13,3 C 88 % 1018,9 hPa 0,0 l/m 0 min 0 min 0,0 UV-I 115 W/m 10,5 km/h (2 Bft)
19.06.2014 18:02 15,5 C 13,3 C 88 % 1018,9 hPa 0,0 l/m 0 min 0 min 0,0 UV-I 115 W/m 10,5 km/h (2 Bft)
19.06.2014 18:06 15,5 C 13,9 C 89 % 1019,0 hPa 0,0 l/m 0 min 2 min 0,0 UV-I 104 W/m 16,7 km/h (3 Bft)
19.06.2014 18:08 15,5 C 13,9 C 88 % 1019,1 hPa 0,0 l/m 0 min 2 min 0,0 UV-I 120 W/m 18,8 km/h (3 Bft)
19.06.2014 18:10 15,4 C 13,3 C 88 % 1019,1 hPa 0,0 l/m 0 min 2 min 0,0 UV-I 141 W/m 16,7 km/h (3 Bft)
19.06.2014 18:12 15,4 C 13,9 C 89 % 1019,1 hPa 0,0 l/m 0 min 2 min 0,0 UV-I 155 W/m 4,2 km/h (1 Bft)
19.06.2014 18:14 15,5 C 13,9 C 90 % 1019,0 hPa 0,0 l/m 0 min 2 min 0,0 UV-I 158 W/m 10,5 km/h (2 Bft)
19.06.2014 18:16 15,5 C 13,9 C 90 % 1019,1 hPa 0,0 l/m 0 min 2 min 0,0 UV-I 154 W/m 16,7 km/h (3 Bft)
19.06.2014 18:18 15,5 C 13,9 C 90 % 1019,1 hPa 0,0 l/m 0 min 0 min 0,0 UV-I 154 W/m 12,6 km/h (3 Bft)
19.06.2014 18:20 15,6 C 13,9 C 90 % 1019,0 hPa 0,0 l/m 0 min 0 min 0,0 UV-I 168 W/m 12,6 km/h (3 Bft)
19.06.2014 18:22 15,5 C 13,9 C 90 % 1019,0 hPa 0,0 l/m 0 min 0 min 0,0 UV-I 190 W/m 18,8 km/h (3 Bft)
19.06.2014 18:24 15,6 C 13,9 C 90 % 1019,0 hPa 0,0 l/m 0 min 0 min 0,0 UV-I 184 W/m 10,5 km/h (2 Bft)
19.06.2014 18:26 15,6 C 13,9 C 90 % 1019,0 hPa 0,0 l/m 0 min 0 min 0,0 UV-I 117 W/m 14,6 km/h (3 Bft)
19.06.2014 18:28 15,6 C 13,9 C 90 % 1019,0 hPa 0,0 l/m 0 min 0 min 0,0 UV-I 104 W/m 14,6 km/h (3 Bft)
19.06.2014 18:30 15,6 C 13,9 C 89 % 1018,9 hPa 0,0 l/m 0 min 0 min 0,0 UV-I 95 W/m 14,6 km/h (3 Bft)
19.06.2014 18:32 15,4 C 13,3 C 89 % 1019,0 hPa 0,0 l/m 0 min 0 min 0,0 UV-I 85 W/m 18,8 km/h (3 Bft)
19.06.2014 18:34 15,4 C 13,3 C 89 % 1018,9 hPa 0,0 l/m 0 min 0 min 0,0 UV-I 75 W/m 20,9 km/h (4 Bft)
19.06.2014 18:36 15,4 C 13,3 C 89 % 1019,0 hPa 0,0 l/m 0 min 0 min 0,0 UV-I 54 W/m 12,6 km/h (3 Bft)
19.06.2014 18:38 15,4 C 13,3 C 89 % 1019,0 hPa 0,0 l/m 0 min 0 min 0,0 UV-I 40 W/m 16,7 km/h (3 Bft)
19.06.2014 18:40 15,3 C 13,3 C 89 % 1018,9 hPa 0,0 l/m 0 min 0 min 0,0 UV-I 43 W/m 18,8 km/h (3 Bft)
19.06.2014 18:42 15,3 C 13,3 C 88 % 1019,0 hPa 0,0 l/m 0 min 0 min 0,0 UV-I 46 W/m 14,6 km/h (3 Bft)
19.06.2014 18:44 15,3 C 13,3 C 88 % 1018,9 hPa 0,0 l/m 0 min 0 min 0,0 UV-I 62 W/m 14,6 km/h (3 Bft)
19.06.2014 18:46 15,3 C 13,3 C 89 % 1018,9 hPa 0,0 l/m 0 min 0 min 0,0 UV-I 72 W/m 20,9 km/h (4 Bft)
19.06.2014 18:48 15,2 C 13,3 C 89 % 1018,8 hPa 0,0 l/m 0 min 0 min 0,0 UV-I 79 W/m 16,7 km/h (3 Bft)
19.06.2014 18:50 15,2 C 13,3 C 89 % 1018,8 hPa 0,0 l/m 0 min 0 min 0,0 UV-I 79 W/m 12,6 km/h (3 Bft)
19.06.2014 18:52 15,2 C 13,3 C 89 % 1018,8 hPa 0,0 l/m 0 min 0 min 0,0 UV-I 80 W/m 16,7 km/h (3 Bft)
19.06.2014 18:54 15,3 C 13,3 C 89 % 1018,8 hPa 0,0 l/m 0 min 0 min 0,0 UV-I 85 W/m 8,4 km/h (2 Bft)
19.06.2014 18:56 15,3 C 13,3 C 89 % 1018,8 hPa 0,0 l/m 0 min 0 min 0,0 UV-I 89 W/m 18,8 km/h (3 Bft)
19.06.2014 18:58 15,3 C 13,3 C 89 % 1018,9 hPa 0,0 l/m 0 min 0 min 0,0 UV-I 91 W/m 12,6 km/h (3 Bft)
19.06.2014 19:00 15,3 C 13,3 C 89 % 1018,8 hPa 0,0 l/m 0 min 0 min 0,0 UV-I 89 W/m 16,7 km/h (3 Bft)
19.06.2014 19:02 15,2 C 13,3 C 88 % 1018,9 hPa 0,0 l/m 0 min 0 min 0,0 UV-I 80 W/m 12,6 km/h (3 Bft)
19.06.2014 19:04 15,2 C 13,3 C 89 % 1018,9 hPa 0,0 l/m 0 min 0 min 0,0 UV-I 75 W/m 14,6 km/h (3 Bft)
19.06.2014 19:06 15,2 C 13,3 C 88 % 1018,9 hPa 0,0 l/m 0 min 0 min 0,0 UV-I 83 W/m 12,6 km/h (3 Bft)
19.06.2014 19:08 15,2 C 13,3 C 89 % 1018,9 hPa 0,0 l/m 0 min 0 min 0,0 UV-I 89 W/m 10,5 km/h (2 Bft)
19.06.2014 19:10 15,3 C 13,9 C 89 % 1018,8 hPa 0,0 l/m 0 min 0 min 0,0 UV-I 93 W/m 12,6 km/h (3 Bft)
19.06.2014 19:12 15,3 C 13,9 C 89 % 1018,8 hPa 0,0 l/m 0 min 0 min 0,0 UV-I 107 W/m 14,6 km/h (3 Bft)
19.06.2014 19:14 15,3 C 13,9 C 89 % 1018,8 hPa 0,0 l/m 0 min 0 min 0,0 UV-I 112 W/m 10,5 km/h (2 Bft)
19.06.2014 19:16 15,3 C 13,9 C 89 % 1018,9 hPa 0,0 l/m 0 min 0 min 0,0 UV-I 128 W/m 20,9 km/h (4 Bft)
19.06.2014 19:18 15,4 C 13,9 C 89 % 1018,8 hPa 0,0 l/m 0 min 0 min 0,0 UV-I 113 W/m 18,8 km/h (3 Bft)
19.06.2014 19:20 15,4 C 13,9 C 89 % 1018,9 hPa 0,0 l/m 0 min 0 min 0,0 UV-I 83 W/m 14,6 km/h (3 Bft)
19.06.2014 19:22 15,5 C 13,9 C 88 % 1018,8 hPa 0,0 l/m 0 min 0 min 0,0 UV-I 61 W/m 12,6 km/h (3 Bft)
19.06.2014 19:24 15,4 C 13,3 C 87 % 1018,8 hPa 0,0 l/m 0 min 0 min 0,0 UV-I 43 W/m 16,7 km/h (3 Bft)
19.06.2014 19:26 15,4 C 13,3 C 87 % 1018,8 hPa 0,0 l/m 0 min 0 min 0,0 UV-I 38 W/m 20,9 km/h (4 Bft)
19.06.2014 19:28 15,4 C 13,3 C 87 % 1018,8 hPa 0,0 l/m 0 min 0 min 0,0 UV-I 43 W/m 20,9 km/h (4 Bft)
19.06.2014 19:30 15,4 C 13,3 C 87 % 1018,9 hPa 0,0 l/m 0 min 0 min 0,0 UV-I 61 W/m 14,6 km/h (3 Bft)
19.06.2014 19:32 15,4 C 13,3 C 87 % 1018,9 hPa 0,0 l/m 0 min 0 min 0,0 UV-I 69 W/m 18,8 km/h (3 Bft)
19.06.2014 19:34 15,4 C 13,3 C 87 % 1018,8 hPa 0,0 l/m 0 min 0 min 0,0 UV-I 77 W/m 10,5 km/h (2 Bft)
19.06.2014 19:36 15,4 C 13,3 C 87 % 1018,8 hPa 0,0 l/m 0 min 0 min 0,0 UV-I 75 W/m 16,7 km/h (3 Bft)
19.06.2014 19:38 15,4 C 13,3 C 87 % 1018,8 hPa 0,0 l/m 0 min 0 min 0,0 UV-I 62 W/m 14,6 km/h (3 Bft)
19.06.2014 19:40 15,4 C 13,3 C 87 % 1018,9 hPa 0,0 l/m 0 min 0 min 0,0 UV-I 59 W/m 14,6 km/h (3 Bft)
19.06.2014 19:42 15,4 C 13,3 C 87 % 1018,9 hPa 0,0 l/m 0 min 0 min 0,0 UV-I 56 W/m 20,9 km/h (4 Bft)
19.06.2014 19:44 15,4 C 13,3 C 87 % 1018,9 hPa 0,0 l/m 0 min 0 min 0,0 UV-I 54 W/m 16,7 km/h (3 Bft)
19.06.2014 19:46 15,4 C 13,3 C 87 % 1018,9 hPa 0,0 l/m 0 min 0 min 0,0 UV-I 51 W/m 16,7 km/h (3 Bft)
19.06.2014 19:48 15,3 C 13,3 C 86 % 1018,9 hPa 0,0 l/m 0 min 0 min 0,0 UV-I 34 W/m 14,6 km/h (3 Bft)
19.06.2014 19:50 15,3 C 13,3 C 86 % 1018,8 hPa 0,0 l/m 0 min 0 min 0,0 UV-I 34 W/m 12,6 km/h (3 Bft)
19.06.2014 19:52 15,3 C 13,3 C 87 % 1018,9 hPa 0,0 l/m 0 min 0 min 0,0 UV-I 45 W/m 12,6 km/h (3 Bft)
19.06.2014 19:54 15,3 C 13,3 C 87 % 1018,8 hPa 0,0 l/m 0 min 0 min 0,0 UV-I 45 W/m 8,4 km/h (2 Bft)
19.06.2014 19:56 15,3 C 13,3 C 87 % 1018,9 hPa 0,0 l/m 0 min 0 min 0,0 UV-I 45 W/m 12,6 km/h (3 Bft)
19.06.2014 19:58 15,3 C 13,3 C 87 % 1018,8 hPa 0,0 l/m 0 min 0 min 0,0 UV-I 43 W/m 8,4 km/h (2 Bft)
19.06.2014 20:00 15,3 C 13,3 C 87 % 1018,8 hPa 0,0 l/m 0 min 0 min 0,0 UV-I 37 W/m 12,6 km/h (3 Bft)
19.06.2014 20:02 15,3 C 13,3 C 87 % 1018,7 hPa 0,0 l/m 0 min 0 min 0,0 UV-I 30 W/m 8,4 km/h (2 Bft)
19.06.2014 20:04 15,3 C 13,3 C 87 % 1018,7 hPa 0,0 l/m 0 min 0 min 0,0 UV-I 29 W/m 6,3 km/h (2 Bft)
19.06.2014 20:06 15,3 C 13,3 C 87 % 1018,8 hPa 0,0 l/m 0 min 0 min 0,0 UV-I 26 W/m 12,6 km/h (3 Bft)
19.06.2014 20:08 15,3 C 13,3 C 87 % 1018,8 hPa 0,0 l/m 0 min 0 min 0,0 UV-I 26 W/m 12,6 km/h (3 Bft)
19.06.2014 20:10 15,3 C 13,3 C 88 % 1018,8 hPa 0,0 l/m 0 min 0 min 0,0 UV-I 30 W/m 18,8 km/h (3 Bft)
19.06.2014 20:12 15,2 C 13,3 C 87 % 1018,7 hPa 0,0 l/m 0 min 0 min 0,0 UV-I 29 W/m 12,6 km/h (3 Bft)
19.06.2014 20:14 15,3 C 13,3 C 87 % 1018,8 hPa 0,0 l/m 0 min 0 min 0,0 UV-I 32 W/m 12,6 km/h (3 Bft)
19.06.2014 20:16 15,2 C 13,3 C 87 % 1018,7 hPa 0,0 l/m 0 min 0 min 0,0 UV-I 34 W/m 12,6 km/h (3 Bft)
19.06.2014 20:18 15,2 C 13,3 C 87 % 1018,7 hPa 0,0 l/m 0 min 0 min 0,0 UV-I 26 W/m 10,5 km/h (2 Bft)
19.06.2014 20:20 15,3 C 13,3 C 88 % 1018,7 hPa 0,0 l/m 0 min 0 min 0,0 UV-I 24 W/m 12,6 km/h (3 Bft)
19.06.2014 20:22 15,2 C 13,3 C 87 % 1018,8 hPa 0,0 l/m 0 min 0 min 0,0 UV-I 22 W/m 12,6 km/h (3 Bft)
19.06.2014 20:24 15,2 C 13,3 C 87 % 1018,7 hPa 0,0 l/m 0 min 0 min 0,0 UV-I 22 W/m 10,5 km/h (2 Bft)
19.06.2014 20:26 15,2 C 13,3 C 87 % 1018,7 hPa 0,0 l/m 0 min 0 min 0,0 UV-I 22 W/m 14,6 km/h (3 Bft)
19.06.2014 20:28 15,2 C 13,3 C 87 % 1018,7 hPa 0,0 l/m 0 min 0 min 0,0 UV-I 21 W/m 14,6 km/h (3 Bft)
19.06.2014 20:30 15,2 C 13,3 C 88 % 1018,7 hPa 0,0 l/m 0 min 0 min 0,0 UV-I 22 W/m 12,6 km/h (3 Bft)
19.06.2014 20:32 15,2 C 13,3 C 88 % 1018,7 hPa 0,0 l/m 0 min 0 min 0,0 UV-I 21 W/m 18,8 km/h (3 Bft)
19.06.2014 20:34 15,2 C 13,3 C 88 % 1018,7 hPa 0,0 l/m 0 min 0 min 0,0 UV-I 22 W/m 16,7 km/h (3 Bft)
19.06.2014 20:36 15,2 C 13,3 C 88 % 1018,7 hPa 0,0 l/m 0 min 0 min 0,0 UV-I 22 W/m 14,6 km/h (3 Bft)
19.06.2014 20:38 15,1 C 13,3 C 88 % 1018,7 hPa 0,0 l/m 0 min 0 min 0,0 UV-I 22 W/m 23,0 km/h (4 Bft)
19.06.2014 20:40 15,1 C 13,3 C 88 % 1018,7 hPa 0,0 l/m 0 min 0 min 0,0 UV-I 18 W/m 16,7 km/h (3 Bft)
19.06.2014 20:42 15,1 C 13,3 C 87 % 1018,7 hPa 0,0 l/m 0 min 0 min 0,0 UV-I 18 W/m 16,7 km/h (3 Bft)
19.06.2014 20:44 15,1 C 13,3 C 88 % 1018,7 hPa 0,0 l/m 0 min 0 min 0,0 UV-I 16 W/m 16,7 km/h (3 Bft)
19.06.2014 20:46 15,1 C 13,3 C 88 % 1018,8 hPa 0,0 l/m 0 min 0 min 0,0 UV-I 16 W/m 14,6 km/h (3 Bft)
19.06.2014 20:48 15,0 C 13,3 C 88 % 1018,8 hPa 0,0 l/m 0 min 0 min 0,0 UV-I 13 W/m 14,6 km/h (3 Bft)
19.06.2014 20:50 15,0 C 13,3 C 88 % 1018,8 hPa 0,0 l/m 0 min 2 min 0,0 UV-I 13 W/m 14,6 km/h (3 Bft)
19.06.2014 20:52 14,9 C 13,3 C 88 % 1018,9 hPa 0,0 l/m 0 min 0 min 0,0 UV-I 10 W/m 23,0 km/h (4 Bft)
19.06.2014 20:54 14,8 C 12,8 C 89 % 1018,9 hPa 0,0 l/m 0 min 2 min 0,0 UV-I 10 W/m 23,0 km/h (4 Bft)
19.06.2014 20:56 14,7 C 12,8 C 90 % 1019,0 hPa 0,0 l/m 0 min 2 min 0,0 UV-I 10 W/m 25,1 km/h (4 Bft)
19.06.2014 20:58 14,5 C 12,8 C 90 % 1019,1 hPa 0,0 l/m 0 min 2 min 0,0 UV-I 8 W/m 23,0 km/h (4 Bft)
19.06.2014 21:00 14,3 C 12,2 C 91 % 1019,1 hPa 0,0 l/m 0 min 2 min 0,0 UV-I 8 W/m 27,2 km/h (4 Bft)
19.06.2014 21:02 14,2 C 12,2 C 91 % 1019,1 hPa 0,0 l/m 0 min 2 min 0,0 UV-I 8 W/m 23,0 km/h (4 Bft)
19.06.2014 21:04 13,9 C 12,2 C 91 % 1019,2 hPa 0,0 l/m 0 min 2 min 0,0 UV-I 6 W/m 20,9 km/h (4 Bft)
19.06.2014 21:06 13,7 C 11,7 C 92 % 1019,2 hPa 0,0 l/m 0 min 0 min 0,0 UV-I 6 W/m 20,9 km/h (4 Bft)
19.06.2014 21:08 13,5 C 11,7 C 92 % 1019,2 hPa 0,0 l/m 0 min 0 min 0,0 UV-I 6 W/m 6,3 km/h (2 Bft)
19.06.2014 21:10 13,4 C 11,7 C 92 % 1019,2 hPa 0,0 l/m 0 min 0 min 0,0 UV-I 6 W/m 10,5 km/h (2 Bft)
19.06.2014 21:12 13,3 C 11,7 C 93 % 1019,1 hPa 0,0 l/m 0 min 0 min 0,0 UV-I 6 W/m 6,3 km/h (2 Bft)
19.06.2014 21:14 13,3 C 12,2 C 93 % 1019,2 hPa 0,0 l/m 0 min 0 min 0,0 UV-I 6 W/m 8,4 km/h (2 Bft)
19.06.2014 21:16 13,4 C 12,2 C 93 % 1019,1 hPa 0,0 l/m 0 min 0 min 0,0 UV-I 6 W/m 10,5 km/h (2 Bft)
19.06.2014 21:18 13,3 C 12,2 C 94 % 1019,2 hPa 0,0 l/m 0 min 0 min 0,0 UV-I 6 W/m 8,4 km/h (2 Bft)
19.06.2014 21:20 13,4 C 12,2 C 94 % 1019,1 hPa 0,0 l/m 0 min 0 min 0,0 UV-I 6 W/m 8,4 km/h (2 Bft)
19.06.2014 21:22 13,4 C 12,2 C 94 % 1019,2 hPa 0,0 l/m 0 min 0 min 0,0 UV-I 6 W/m 8,4 km/h (2 Bft)
19.06.2014 21:24 13,4 C 12,2 C 94 % 1019,2 hPa 0,0 l/m 0 min 0 min 0,0 UV-I 6 W/m 10,5 km/h (2 Bft)
19.06.2014 21:26 13,4 C 12,2 C 95 % 1019,1 hPa 0,0 l/m 0 min 0 min 0,0 UV-I 6 W/m 10,5 km/h (2 Bft)
19.06.2014 21:28 13,4 C 12,2 C 95 % 1018,9 hPa 0,0 l/m 0 min 0 min 0,0 UV-I 6 W/m 8,4 km/h (2 Bft)
19.06.2014 21:30 13,4 C 12,2 C 95 % 1019,0 hPa 0,0 l/m 0 min 0 min 0,0 UV-I 6 W/m 4,2 km/h (1 Bft)
19.06.2014 21:32 13,4 C 12,2 C 95 % 1018,9 hPa 0,0 l/m 0 min 0 min 0,0 UV-I 0 W/m 12,6 km/h (3 Bft)
19.06.2014 21:34 13,4 C 12,2 C 95 % 1019,0 hPa 0,0 l/m 0 min 0 min 0,0 UV-I 0 W/m 8,4 km/h (2 Bft)
19.06.2014 21:36 13,4 C 12,2 C 95 % 1018,9 hPa 0,0 l/m 0 min 0 min 0,0 UV-I 0 W/m 6,3 km/h (2 Bft)
19.06.2014 21:38 13,4 C 12,2 C 95 % 1018,9 hPa 0,0 l/m 0 min 0 min 0,0 UV-I 0 W/m 6,3 km/h (2 Bft)
19.06.2014 21:40 13,3 C 12,2 C 95 % 1018,9 hPa 0,0 l/m 0 min 0 min 0,0 UV-I 0 W/m 0,0 km/h (0 Bft)
19.06.2014 21:42 13,4 C 12,2 C 95 % 1018,8 hPa 0,0 l/m 0 min 0 min 0,0 UV-I 0 W/m 0,0 km/h (0 Bft)
19.06.2014 21:44 13,4 C 12,2 C 95 % 1018,9 hPa 0,0 l/m 0 min 0 min 0,0 UV-I 0 W/m 0,0 km/h (0 Bft)
19.06.2014 21:46 13,4 C 12,2 C 95 % 1018,9 hPa 0,0 l/m 0 min 0 min 0,0 UV-I 0 W/m 4,2 km/h (1 Bft)
19.06.2014 21:48 13,3 C 12,2 C 95 % 1018,8 hPa 0,0 l/m 0 min 0 min 0,0 UV-I 0 W/m 0,0 km/h (0 Bft)
19.06.2014 21:50 13,4 C 12,2 C 95 % 1018,9 hPa 0,0 l/m 0 min 0 min 0,0 UV-I 0 W/m 0,0 km/h (0 Bft)
19.06.2014 21:52 13,3 C 12,2 C 95 % 1018,9 hPa 0,0 l/m 0 min 0 min 0,0 UV-I 0 W/m 6,3 km/h (2 Bft)
19.06.2014 21:54 13,4 C 12,2 C 95 % 1019,0 hPa 0,0 l/m 0 min 0 min 0,0 UV-I 0 W/m 6,3 km/h (2 Bft)
19.06.2014 21:56 13,4 C 12,2 C 95 % 1019,0 hPa 0,0 l/m 0 min 0 min 0,0 UV-I 0 W/m 4,2 km/h (1 Bft)
19.06.2014 21:58 13,4 C 12,2 C 95 % 1019,0 hPa 0,0 l/m 0 min 0 min 0,0 UV-I 0 W/m 12,6 km/h (3 Bft)
19.06.2014 22:00 13,4 C 12,2 C 95 % 1019,0 hPa 0,0 l/m 0 min 0 min 0,0 UV-I 0 W/m 6,3 km/h (2 Bft)
19.06.2014 22:02 13,4 C 12,2 C 95 % 1019,0 hPa 0,0 l/m 0 min 0 min 0,0 UV-I 0 W/m 8,4 km/h (2 Bft)
19.06.2014 22:04 13,4 C 12,2 C 95 % 1019,1 hPa 0,0 l/m 0 min 0 min 0,0 UV-I 0 W/m 6,3 km/h (2 Bft)
19.06.2014 22:06 13,4 C 12,2 C 95 % 1018,9 hPa 0,0 l/m 0 min 0 min 0,0 UV-I 0 W/m 10,5 km/h (2 Bft)
19.06.2014 22:08 13,4 C 12,2 C 95 % 1018,9 hPa 0,0 l/m 0 min 0 min 0,0 UV-I 0 W/m 10,5 km/h (2 Bft)
19.06.2014 22:10 13,4 C 12,2 C 94 % 1018,9 hPa 0,0 l/m 0 min 0 min 0,0 UV-I 0 W/m 8,4 km/h (2 Bft)
19.06.2014 22:12 13,4 C 12,2 C 94 % 1019,0 hPa 0,0 l/m 0 min 0 min 0,0 UV-I 0 W/m 10,5 km/h (2 Bft)
19.06.2014 22:14 13,4 C 12,2 C 94 % 1019,0 hPa 0,0 l/m 0 min 0 min 0,0 UV-I 0 W/m 6,3 km/h (2 Bft)
19.06.2014 22:16 13,4 C 12,2 C 94 % 1019,0 hPa 0,0 l/m 0 min 0 min 0,0 UV-I 0 W/m 6,3 km/h (2 Bft)
19.06.2014 22:18 13,4 C 12,2 C 94 % 1019,0 hPa 0,0 l/m 0 min 0 min 0,0 UV-I 0 W/m 2,1 km/h (1 Bft)
19.06.2014 22:20 13,4 C 12,2 C 94 % 1019,0 hPa 0,0 l/m 0 min 0 min 0,0 UV-I 0 W/m 0,0 km/h (0 Bft)
19.06.2014 22:22 13,4 C 12,2 C 94 % 1019,0 hPa 0,0 l/m 0 min 0 min 0,0 UV-I 0 W/m 0,0 km/h (0 Bft)
19.06.2014 22:24 13,4 C 12,2 C 94 % 1018,9 hPa 0,0 l/m 0 min 0 min 0,0 UV-I 0 W/m 0,0 km/h (0 Bft)
19.06.2014 22:26 13,4 C 12,2 C 94 % 1019,0 hPa 0,0 l/m 0 min 0 min 0,0 UV-I 0 W/m 8,4 km/h (2 Bft)
19.06.2014 22:28 13,4 C 12,2 C 94 % 1019,0 hPa 0,0 l/m 0 min 0 min 0,0 UV-I 0 W/m 0,0 km/h (0 Bft)
19.06.2014 22:30 13,4 C 12,2 C 94 % 1019,0 hPa 0,0 l/m 0 min 0 min 0,0 UV-I 0 W/m 12,6 km/h (3 Bft)
19.06.2014 22:32 13,4 C 12,2 C 94 % 1019,1 hPa 0,0 l/m 0 min 0 min 0,0 UV-I 0 W/m 8,4 km/h (2 Bft)
19.06.2014 22:34 13,4 C 12,2 C 94 % 1019,0 hPa 0,0 l/m 0 min 0 min 0,0 UV-I 0 W/m 10,5 km/h (2 Bft)
19.06.2014 22:36 13,4 C 12,2 C 94 % 1019,0 hPa 0,0 l/m 0 min 0 min 0,0 UV-I 0 W/m 8,4 km/h (2 Bft)
19.06.2014 22:38 13,4 C 12,2 C 94 % 1019,0 hPa 0,0 l/m 0 min 0 min 0,0 UV-I 0 W/m 0,0 km/h (0 Bft)
19.06.2014 22:40 13,4 C 12,2 C 94 % 1019,1 hPa 0,0 l/m 0 min 0 min 0,0 UV-I 0 W/m 10,5 km/h (2 Bft)
19.06.2014 22:42 13,3 C 12,2 C 94 % 1019,1 hPa 0,0 l/m 0 min 0 min 0,0 UV-I 0 W/m 6,3 km/h (2 Bft)
19.06.2014 22:44 13,4 C 12,2 C 94 % 1019,1 hPa 0,0 l/m 0 min 0 min 0,0 UV-I 0 W/m 8,4 km/h (2 Bft)
19.06.2014 22:46 13,4 C 12,2 C 94 % 1019,1 hPa 0,0 l/m 0 min 0 min 0,0 UV-I 0 W/m 8,4 km/h (2 Bft)
19.06.2014 22:48 13,4 C 12,2 C 94 % 1019,1 hPa 0,0 l/m 0 min 0 min 0,0 UV-I 0 W/m 8,4 km/h (2 Bft)
19.06.2014 22:50 13,4 C 12,2 C 94 % 1019,0 hPa 0,0 l/m 0 min 0 min 0,0 UV-I 0 W/m 12,6 km/h (3 Bft)
19.06.2014 22:52 13,4 C 12,2 C 94 % 1019,1 hPa 0,0 l/m 0 min 0 min 0,0 UV-I 0 W/m 8,4 km/h (2 Bft)
19.06.2014 22:54 13,4 C 12,2 C 94 % 1019,0 hPa 0,0 l/m 0 min 0 min 0,0 UV-I 0 W/m 6,3 km/h (2 Bft)
19.06.2014 22:56 13,4 C 12,2 C 94 % 1019,0 hPa 0,0 l/m 0 min 0 min 0,0 UV-I 0 W/m 8,4 km/h (2 Bft)
19.06.2014 22:58 13,3 C 11,7 C 94 % 1019,1 hPa 0,0 l/m 0 min 0 min 0,0 UV-I 0 W/m 10,5 km/h (2 Bft)
19.06.2014 23:00 13,3 C 11,7 C 94 % 1019,1 hPa 0,0 l/m 0 min 0 min 0,0 UV-I 0 W/m 12,6 km/h (3 Bft)
19.06.2014 23:02 13,3 C 11,7 C 94 % 1019,0 hPa 0,0 l/m 0 min 0 min 0,0 UV-I 0 W/m 6,3 km/h (2 Bft)
19.06.2014 23:04 13,3 C 11,7 C 94 % 1019,0 hPa 0,0 l/m 0 min 0 min 0,0 UV-I 0 W/m 6,3 km/h (2 Bft)
19.06.2014 23:06 13,2 C 11,7 C 94 % 1019,0 hPa 0,0 l/m 0 min 0 min 0,0 UV-I 0 W/m 12,6 km/h (3 Bft)
19.06.2014 23:08 13,2 C 11,7 C 94 % 1019,0 hPa 0,0 l/m 0 min 0 min 0,0 UV-I 0 W/m 18,8 km/h (3 Bft)
19.06.2014 23:10 13,2 C 11,7 C 94 % 1019,0 hPa 0,0 l/m 0 min 0 min 0,0 UV-I 0 W/m 8,4 km/h (2 Bft)
19.06.2014 23:12 13,1 C 11,7 C 94 % 1018,9 hPa 0,0 l/m 0 min 0 min 0,0 UV-I 0 W/m 8,4 km/h (2 Bft)
19.06.2014 23:14 13,0 C 11,7 C 94 % 1019,0 hPa 0,0 l/m 0 min 0 min 0,0 UV-I 0 W/m 14,6 km/h (3 Bft)
19.06.2014 23:16 13,0 C 11,7 C 94 % 1019,0 hPa 0,0 l/m 0 min 0 min 0,0 UV-I 0 W/m 10,5 km/h (2 Bft)
19.06.2014 23:18 12,9 C 11,7 C 94 % 1019,0 hPa 0,0 l/m 0 min 0 min 0,0 UV-I 0 W/m 10,5 km/h (2 Bft)
19.06.2014 23:20 12,9 C 11,1 C 94 % 1019,0 hPa 0,0 l/m 0 min 0 min 0,0 UV-I 0 W/m 10,5 km/h (2 Bft)
19.06.2014 23:22 12,8 C 11,1 C 94 % 1019,1 hPa 0,0 l/m 0 min 0 min 0,0 UV-I 0 W/m 10,5 km/h (2 Bft)
19.06.2014 23:24 12,8 C 11,1 C 94 % 1019,1 hPa 0,0 l/m 0 min 0 min 0,0 UV-I 0 W/m 8,4 km/h (2 Bft)
19.06.2014 23:26 12,7 C 11,1 C 94 % 1019,1 hPa 0,0 l/m 0 min 0 min 0,0 UV-I 0 W/m 8,4 km/h (2 Bft)
19.06.2014 23:28 12,7 C 11,1 C 95 % 1019,0 hPa 0,0 l/m 0 min 0 min 0,0 UV-I 0 W/m 8,4 km/h (2 Bft)
19.06.2014 23:30 12,7 C 11,1 C 95 % 1019,1 hPa 0,0 l/m 0 min 0 min 0,0 UV-I 0 W/m 8,4 km/h (2 Bft)
19.06.2014 23:32 12,6 C 11,1 C 95 % 1019,1 hPa 0,0 l/m 0 min 0 min 0,0 UV-I 0 W/m 6,3 km/h (2 Bft)
19.06.2014 23:34 12,6 C 11,1 C 95 % 1019,1 hPa 0,0 l/m 0 min 0 min 0,0 UV-I 0 W/m 10,5 km/h (2 Bft)
19.06.2014 23:36 12,5 C 11,1 C 95 % 1019,2 hPa 0,0 l/m 0 min 0 min 0,0 UV-I 0 W/m 10,5 km/h (2 Bft)
19.06.2014 23:38 12,5 C 11,1 C 95 % 1019,2 hPa 0,0 l/m 0 min 0 min 0,0 UV-I 0 W/m 8,4 km/h (2 Bft)
19.06.2014 23:40 12,5 C 11,1 C 95 % 1019,2 hPa 0,0 l/m 0 min 0 min 0,0 UV-I 0 W/m 4,2 km/h (1 Bft)
19.06.2014 23:42 12,4 C 11,1 C 95 % 1019,2 hPa 0,0 l/m 0 min 0 min 0,0 UV-I 0 W/m 0,0 km/h (0 Bft)
19.06.2014 23:44 12,4 C 11,1 C 95 % 1019,1 hPa 0,0 l/m 0 min 0 min 0,0 UV-I 0 W/m 0,0 km/h (0 Bft)
19.06.2014 23:46 12,3 C 11,1 C 95 % 1019,1 hPa 0,0 l/m 0 min 0 min 0,0 UV-I 0 W/m 0,0 km/h (0 Bft)
19.06.2014 23:48 12,3 C 10,6 C 95 % 1019,1 hPa 0,0 l/m 0 min 0 min 0,0 UV-I 0 W/m 2,1 km/h (1 Bft)
19.06.2014 23:50 12,3 C 10,6 C 95 % 1019,2 hPa 0,0 l/m 0 min 0 min 0,0 UV-I 0 W/m 10,5 km/h (2 Bft)
19.06.2014 23:52 12,2 C 10,6 C 95 % 1019,1 hPa 0,0 l/m 0 min 0 min 0,0 UV-I 0 W/m 6,3 km/h (2 Bft)
19.06.2014 23:54 12,2 C 10,6 C 95 % 1019,2 hPa 0,0 l/m 0 min 0 min 0,0 UV-I 0 W/m 0,0 km/h (0 Bft)
19.06.2014 23:56 12,2 C 10,6 C 95 % 1019,1 hPa 0,0 l/m 0 min 0 min 0,0 UV-I 0 W/m 4,2 km/h (1 Bft)
19.06.2014 23:58 12,2 C 10,6 C 95 % 1019,1 hPa 0,0 l/m 0 min 0 min 0,0 UV-I 0 W/m 0,0 km/h (0 Bft)
_ Min-Zeit 04:30 04:30 13:28 20:02 - - - - - 00:02
Minimum _ 10,6 C 8,9 C 67 % 1018,7 hPa - - - - - 0,0 km/h (0 Bft)
_ Max-Zeit 13:28 13:26 04:16 00:12 16:56 13:04 16:54 13:24 13:34 21:00
Maximum _ 18,6 C 20,6 C 96 % 1021,3 hPa 0,2 l/m 2 min 2 min 5,6 UV-I 1112 W/m 27,2 km/h
NO (4 Bft)
Durchschnitt _ 14,3 C 13,5 C 86 % 1020,0 hPa #0,4 l/m #40 min. #1:04 h 1,3 UV-I 178 W/m 8,6 km/h (2 Bft)
© 2014 W. Hausmann